<?xml version="1.0" encoding="UTF-8" standalone="no" ?>
<gpx xmlns="http://www.topografix.com/GPX/1/1" xmlns:gpxtpx="http://www.garmin.com/xmlschemas/TrackPointExtension/v1" creator="OruxMaps" version="1.1" xmlns:xsi="http://www.w3.org/2001/XMLSchema-instance" xsi:schemaLocation="http://www.topografix.com/GPX/1/1 http://www.topografix.com/GPX/1/1/gpx.xsd">
<metadata>
<name><![CDATA[2013-08-17 14:29]]></name>
<desc><![CDATA[]]></desc>
<link href="http://www.oruxmaps.com">
<text>OruxMaps</text>
</link>
<time>2013-08-17T12:29:35Z</time><bounds maxlat="45.413474002853036" maxlon="4.732449855655432" minlat="45.380964037030935" minlon="4.668525941669941"/>
</metadata>
<trk>
<name><![CDATA[2013-08-17 14:29]]></name>
<desc><![CDATA[<h1>OruxMaps</h1><br /><hr align="center" width="480" style="height: 2px; width: 517px"/><h2>Nom: 2013-08-17 14:29</h2><br /><p>Temps de départ: 08/17/2013 14:29</p><p>Temps d'arrivée: 08/17/2013 16:59</p><p>Distance: 21,7 km (02:29)</p><p>Temps déplacement: 01:59</p><p>Vitesse moyenne: 8,7 km/h</p><p>Vitesse moyenne: 10,9 km/h</p><p>Vitess Max.: 39,4 km/h</p><p>Altitude minimale: 278 m</p><p>Altitude maximale: 651 m</p><p>Vitesse d'élévation: 401,5 m/h</p><p>Vitesse de descente: -679,4 m/h</p><p>Gain Altitude: 526 m</p><p>Perte Altitude: -530 m</p><p>Temps d'élévation: 01:18</p><p>Temps de descente: 00:46</p><hr align="center" width="480" style="height: 2px; width: 517px"/>]]></desc>
<type>Vélo tout-terrain</type>
<trkseg>
<trkpt lat="45.38530460558832" lon="4.724597604945302">
<ele>292.44</ele>
<time>2013-08-17T12:29:37Z</time>
</trkpt>
<trkpt lat="45.38532266858965" lon="4.724859371781349">
<ele>291.44</ele>
<time>2013-08-17T12:30:06Z</time>
</trkpt>
<trkpt lat="45.38529463112354" lon="4.725119210779667">
<ele>291.34</ele>
<time>2013-08-17T12:30:16Z</time>
</trkpt>
<trkpt lat="45.38522300776094" lon="4.724850319325924">
<ele>292.45</ele>
<time>2013-08-17T12:30:33Z</time>
</trkpt>
<trkpt lat="45.38519220426679" lon="4.724555108696222">
<ele>292.47</ele>
<time>2013-08-17T12:30:39Z</time>
</trkpt>
<trkpt lat="45.38524207659066" lon="4.724286887794733">
<ele>292.65</ele>
<time>2013-08-17T12:30:45Z</time>
</trkpt>
<trkpt lat="45.38527422118932" lon="4.724011458456516">
<ele>292.52</ele>
<time>2013-08-17T12:30:53Z</time>
</trkpt>
<trkpt lat="45.38532128557563" lon="4.723764443770051">
<ele>292.95</ele>
<time>2013-08-17T12:31:02Z</time>
</trkpt>
<trkpt lat="45.38534810766578" lon="4.72349856980145">
<ele>292.25</ele>
<time>2013-08-17T12:31:09Z</time>
</trkpt>
<trkpt lat="45.38535485509783" lon="4.7232171054929495">
<ele>292.51</ele>
<time>2013-08-17T12:31:17Z</time>
</trkpt>
<trkpt lat="45.38534412626177" lon="4.722949303686619">
<ele>292.98</ele>
<time>2013-08-17T12:31:24Z</time>
</trkpt>
<trkpt lat="45.3853545198217" lon="4.722688207402825">
<ele>293.79</ele>
<time>2013-08-17T12:31:31Z</time>
</trkpt>
<trkpt lat="45.38531378377229" lon="4.722417052835226">
<ele>295.01</ele>
<time>2013-08-17T12:31:38Z</time>
</trkpt>
<trkpt lat="45.38525703828782" lon="4.722160063683987">
<ele>296.35</ele>
<time>2013-08-17T12:31:46Z</time>
</trkpt>
<trkpt lat="45.385200628079474" lon="4.721891339868307">
<ele>299.16</ele>
<time>2013-08-17T12:31:56Z</time>
</trkpt>
<trkpt lat="45.38516559172422" lon="4.721636949107051">
<ele>301.94</ele>
<time>2013-08-17T12:32:09Z</time>
</trkpt>
<trkpt lat="45.385128795169294" lon="4.721365459263325">
<ele>302.63</ele>
<time>2013-08-17T12:32:19Z</time>
</trkpt>
<trkpt lat="45.385169447399676" lon="4.721101261675358">
<ele>304.81</ele>
<time>2013-08-17T12:32:30Z</time>
</trkpt>
<trkpt lat="45.38520812988281" lon="4.720843182876706">
<ele>307.27</ele>
<time>2013-08-17T12:32:41Z</time>
</trkpt>
<trkpt lat="45.38524450734258" lon="4.7205800749361515">
<ele>308.54</ele>
<time>2013-08-17T12:32:53Z</time>
</trkpt>
<trkpt lat="45.385235915891826" lon="4.720304310321808">
<ele>309.86</ele>
<time>2013-08-17T12:33:06Z</time>
</trkpt>
<trkpt lat="45.38526189979166" lon="4.720047153532505">
<ele>310.21</ele>
<time>2013-08-17T12:33:18Z</time>
</trkpt>
<trkpt lat="45.38530150428414" lon="4.719787230715156">
<ele>311.10</ele>
<time>2013-08-17T12:33:33Z</time>
</trkpt>
<trkpt lat="45.38527799304575" lon="4.71953040920198">
<ele>312.64</ele>
<time>2013-08-17T12:33:42Z</time>
</trkpt>
<trkpt lat="45.38535162806511" lon="4.719285070896149">
<ele>315.26</ele>
<time>2013-08-17T12:34:05Z</time>
</trkpt>
<trkpt lat="45.38542761001736" lon="4.719027411192656">
<ele>315.65</ele>
<time>2013-08-17T12:34:15Z</time>
</trkpt>
<trkpt lat="45.38550598081201" lon="4.718770086765289">
<ele>315.74</ele>
<time>2013-08-17T12:34:23Z</time>
</trkpt>
<trkpt lat="45.3855965891853" lon="4.718525921925902">
<ele>315.03</ele>
<time>2013-08-17T12:34:26Z</time>
</trkpt>
<trkpt lat="45.38569256197661" lon="4.718259545043111">
<ele>313.61</ele>
<time>2013-08-17T12:34:30Z</time>
</trkpt>
<trkpt lat="45.38565635215491" lon="4.718003813177347">
<ele>312.96</ele>
<time>2013-08-17T12:34:35Z</time>
</trkpt>
<trkpt lat="45.38559080567211" lon="4.717719415202737">
<ele>313.84</ele>
<time>2013-08-17T12:34:41Z</time>
</trkpt>
<trkpt lat="45.38553556893021" lon="4.717457480728626">
<ele>314.82</ele>
<time>2013-08-17T12:34:47Z</time>
</trkpt>
<trkpt lat="45.3854626044631" lon="4.717207280918956">
<ele>316.47</ele>
<time>2013-08-17T12:34:55Z</time>
</trkpt>
<trkpt lat="45.3854937851429" lon="4.716944172978401">
<ele>317.78</ele>
<time>2013-08-17T12:35:03Z</time>
</trkpt>
<trkpt lat="45.385488756000996" lon="4.716655919328332">
<ele>320.06</ele>
<time>2013-08-17T12:35:13Z</time>
</trkpt>
<trkpt lat="45.38557022809982" lon="4.716400522738695">
<ele>322.26</ele>
<time>2013-08-17T12:35:20Z</time>
</trkpt>
<trkpt lat="45.38567789364606" lon="4.716162979602814">
<ele>322.19</ele>
<time>2013-08-17T12:35:24Z</time>
</trkpt>
<trkpt lat="45.3857060149312" lon="4.715891573578119">
<ele>320.35</ele>
<time>2013-08-17T12:35:28Z</time>
</trkpt>
<trkpt lat="45.38577105849981" lon="4.715615641325712">
<ele>318.69</ele>
<time>2013-08-17T12:35:32Z</time>
</trkpt>
<trkpt lat="45.385862798430026" lon="4.7153575625270605">
<ele>316.68</ele>
<time>2013-08-17T12:35:36Z</time>
</trkpt>
<trkpt lat="45.38585923612118" lon="4.715059250593185">
<ele>315.08</ele>
<time>2013-08-17T12:35:41Z</time>
</trkpt>
<trkpt lat="45.38584251422435" lon="4.714783066883683">
<ele>314.96</ele>
<time>2013-08-17T12:35:47Z</time>
</trkpt>
<trkpt lat="45.38590546231717" lon="4.714525071904063">
<ele>318.44</ele>
<time>2013-08-17T12:35:57Z</time>
</trkpt>
<trkpt lat="45.38592872209847" lon="4.714236315339804">
<ele>317.36</ele>
<time>2013-08-17T12:36:06Z</time>
</trkpt>
<trkpt lat="45.38590676151216" lon="4.713939595967531">
<ele>315.27</ele>
<time>2013-08-17T12:36:12Z</time>
</trkpt>
<trkpt lat="45.385893979109824" lon="4.713668106123805">
<ele>313.53</ele>
<time>2013-08-17T12:36:18Z</time>
</trkpt>
<trkpt lat="45.385908521711826" lon="4.713405249640346">
<ele>312.57</ele>
<time>2013-08-17T12:36:22Z</time>
</trkpt>
<trkpt lat="45.385927464812994" lon="4.713090928271413">
<ele>311.79</ele>
<time>2013-08-17T12:36:26Z</time>
</trkpt>
<trkpt lat="45.38596577011049" lon="4.712821450084448">
<ele>311.00</ele>
<time>2013-08-17T12:36:30Z</time>
</trkpt>
<trkpt lat="45.38601601962" lon="4.712564377114177">
<ele>310.44</ele>
<time>2013-08-17T12:36:34Z</time>
</trkpt>
<trkpt lat="45.3859583940357" lon="4.712315099313855">
<ele>310.19</ele>
<time>2013-08-17T12:36:38Z</time>
</trkpt>
<trkpt lat="45.385859361849725" lon="4.712063474580646">
<ele>310.42</ele>
<time>2013-08-17T12:36:43Z</time>
</trkpt>
<trkpt lat="45.38584808818996" lon="4.711795337498188">
<ele>310.76</ele>
<time>2013-08-17T12:36:51Z</time>
</trkpt>
<trkpt lat="45.38588672876358" lon="4.7115392703562975">
<ele>311.44</ele>
<time>2013-08-17T12:37:00Z</time>
</trkpt>
<trkpt lat="45.38597444538027" lon="4.711275659501553">
<ele>312.76</ele>
<time>2013-08-17T12:37:11Z</time>
</trkpt>
<trkpt lat="45.38588522002101" lon="4.711033338680863">
<ele>315.20</ele>
<time>2013-08-17T12:37:20Z</time>
</trkpt>
<trkpt lat="45.38595948368311" lon="4.710783809423447">
<ele>315.98</ele>
<time>2013-08-17T12:37:30Z</time>
</trkpt>
<trkpt lat="45.38606396410614" lon="4.710541572421789">
<ele>315.84</ele>
<time>2013-08-17T12:37:40Z</time>
</trkpt>
<trkpt lat="45.38618835154921" lon="4.71033881418407">
<ele>315.51</ele>
<time>2013-08-17T12:37:50Z</time>
</trkpt>
<trkpt lat="45.38632887415588" lon="4.710128847509623">
<ele>314.98</ele>
<time>2013-08-17T12:37:56Z</time>
</trkpt>
<trkpt lat="45.38642124272883" lon="4.709880407899618">
<ele>313.65</ele>
<time>2013-08-17T12:38:02Z</time>
</trkpt>
<trkpt lat="45.38652404677123" lon="4.709632471203804">
<ele>313.60</ele>
<time>2013-08-17T12:38:10Z</time>
</trkpt>
<trkpt lat="45.38657257799059" lon="4.709344720467925">
<ele>315.09</ele>
<time>2013-08-17T12:38:19Z</time>
</trkpt>
<trkpt lat="45.38662437815219" lon="4.7090966161340475">
<ele>316.86</ele>
<time>2013-08-17T12:38:26Z</time>
</trkpt>
<trkpt lat="45.38674013223499" lon="4.708876172080636">
<ele>317.56</ele>
<time>2013-08-17T12:38:32Z</time>
</trkpt>
<trkpt lat="45.38674507755786" lon="4.708590684458613">
<ele>318.84</ele>
<time>2013-08-17T12:38:40Z</time>
</trkpt>
<trkpt lat="45.386766786687076" lon="4.708317182958126">
<ele>320.01</ele>
<time>2013-08-17T12:38:46Z</time>
</trkpt>
<trkpt lat="45.386818000115454" lon="4.7080667316913605">
<ele>320.99</ele>
<time>2013-08-17T12:38:51Z</time>
</trkpt>
<trkpt lat="45.386939286254346" lon="4.707859866321087">
<ele>321.12</ele>
<time>2013-08-17T12:38:57Z</time>
</trkpt>
<trkpt lat="45.38701744750142" lon="4.707588125020266">
<ele>321.32</ele>
<time>2013-08-17T12:39:07Z</time>
</trkpt>
<trkpt lat="45.38713827263564" lon="4.707373632118106">
<ele>322.07</ele>
<time>2013-08-17T12:39:12Z</time>
</trkpt>
<trkpt lat="45.387143888510764" lon="4.707088563591242">
<ele>324.35</ele>
<time>2013-08-17T12:39:21Z</time>
</trkpt>
<trkpt lat="45.387246776372194" lon="4.706875998526812">
<ele>325.43</ele>
<time>2013-08-17T12:39:30Z</time>
</trkpt>
<trkpt lat="45.38742258679122" lon="4.706668965518475">
<ele>325.24</ele>
<time>2013-08-17T12:39:39Z</time>
</trkpt>
<trkpt lat="45.38758779410273" lon="4.706555726006627">
<ele>321.15</ele>
<time>2013-08-17T12:39:52Z</time>
</trkpt>
<trkpt lat="45.38756968919188" lon="4.7062998265028">
<ele>317.87</ele>
<time>2013-08-17T12:40:09Z</time>
</trkpt>
<trkpt lat="45.387623249553144" lon="4.70603303052485">
<ele>317.90</ele>
<time>2013-08-17T12:40:22Z</time>
</trkpt>
<trkpt lat="45.38769797421992" lon="4.705779394134879">
<ele>320.95</ele>
<time>2013-08-17T12:40:37Z</time>
</trkpt>
<trkpt lat="45.38780421484262" lon="4.705555429682136">
<ele>318.87</ele>
<time>2013-08-17T12:40:54Z</time>
</trkpt>
<trkpt lat="45.38783950265497" lon="4.705295423045754">
<ele>317.41</ele>
<time>2013-08-17T12:41:08Z</time>
</trkpt>
<trkpt lat="45.38790152873844" lon="4.705051342025399">
<ele>321.42</ele>
<time>2013-08-17T12:41:20Z</time>
</trkpt>
<trkpt lat="45.388004248961806" lon="4.704823102802038">
<ele>326.33</ele>
<time>2013-08-17T12:41:43Z</time>
</trkpt>
<trkpt lat="45.38794884458184" lon="4.704575166106224">
<ele>340.05</ele>
<time>2013-08-17T12:42:02Z</time>
</trkpt>
<trkpt lat="45.387956514023244" lon="4.704311052337289">
<ele>342.70</ele>
<time>2013-08-17T12:42:22Z</time>
</trkpt>
<trkpt lat="45.387826301157475" lon="4.704126734286547">
<ele>343.90</ele>
<time>2013-08-17T12:42:35Z</time>
</trkpt>
<trkpt lat="45.387692735530436" lon="4.703937387093902">
<ele>345.93</ele>
<time>2013-08-17T12:42:53Z</time>
</trkpt>
<trkpt lat="45.38763967808336" lon="4.703691462054849">
<ele>350.98</ele>
<time>2013-08-17T12:43:17Z</time>
</trkpt>
<trkpt lat="45.38750573527068" lon="4.703506221994758">
<ele>377.21</ele>
<time>2013-08-17T12:46:10Z</time>
</trkpt>
<trkpt lat="45.38737271446735" lon="4.703330118209124">
<ele>380.28</ele>
<time>2013-08-17T12:46:24Z</time>
</trkpt>
<trkpt lat="45.38721324875951" lon="4.703182429075241">
<ele>383.06</ele>
<time>2013-08-17T12:46:37Z</time>
</trkpt>
<trkpt lat="45.38707888685167" lon="4.7029779106378555">
<ele>385.09</ele>
<time>2013-08-17T12:46:50Z</time>
</trkpt>
<trkpt lat="45.387000013142824" lon="4.702737769111991">
<ele>388.98</ele>
<time>2013-08-17T12:47:07Z</time>
</trkpt>
<trkpt lat="45.3868778469041" lon="4.702518247067928">
<ele>390.83</ele>
<time>2013-08-17T12:47:18Z</time>
</trkpt>
<trkpt lat="45.38676309864968" lon="4.702310040593147">
<ele>391.73</ele>
<time>2013-08-17T12:47:28Z</time>
</trkpt>
<trkpt lat="45.38667093962431" lon="4.7020678874105215">
<ele>393.77</ele>
<time>2013-08-17T12:47:38Z</time>
</trkpt>
<trkpt lat="45.38649835623801" lon="4.701940314844251">
<ele>396.46</ele>
<time>2013-08-17T12:47:46Z</time>
</trkpt>
<trkpt lat="45.38632715586573" lon="4.701846605166793">
<ele>398.36</ele>
<time>2013-08-17T12:47:53Z</time>
</trkpt>
<trkpt lat="45.386142334900796" lon="4.70173018053174">
<ele>400.13</ele>
<time>2013-08-17T12:48:00Z</time>
</trkpt>
<trkpt lat="45.385969835333526" lon="4.701588526368141">
<ele>401.78</ele>
<time>2013-08-17T12:48:07Z</time>
</trkpt>
<trkpt lat="45.385820930823684" lon="4.701423738151789">
<ele>402.71</ele>
<time>2013-08-17T12:48:13Z</time>
</trkpt>
<trkpt lat="45.38567575626075" lon="4.7012650687247515">
<ele>402.92</ele>
<time>2013-08-17T12:48:19Z</time>
</trkpt>
<trkpt lat="45.38556218147278" lon="4.701058454811573">
<ele>403.90</ele>
<time>2013-08-17T12:48:27Z</time>
</trkpt>
<trkpt lat="45.38561951369047" lon="4.700813787057996">
<ele>404.86</ele>
<time>2013-08-17T12:48:32Z</time>
</trkpt>
<trkpt lat="45.38567064329982" lon="4.7005545347929">
<ele>405.76</ele>
<time>2013-08-17T12:48:37Z</time>
</trkpt>
<trkpt lat="45.38572437129915" lon="4.7002967074513435">
<ele>406.44</ele>
<time>2013-08-17T12:48:41Z</time>
</trkpt>
<trkpt lat="45.38576774764806" lon="4.700036449357867">
<ele>407.28</ele>
<time>2013-08-17T12:48:46Z</time>
</trkpt>
<trkpt lat="45.38582994136959" lon="4.699744004756212">
<ele>408.01</ele>
<time>2013-08-17T12:48:52Z</time>
</trkpt>
<trkpt lat="45.38589200936258" lon="4.699495984241366">
<ele>408.72</ele>
<time>2013-08-17T12:48:57Z</time>
</trkpt>
<trkpt lat="45.38594724610448" lon="4.699211837723851">
<ele>409.13</ele>
<time>2013-08-17T12:49:03Z</time>
</trkpt>
<trkpt lat="45.386003740131855" lon="4.698918303474784">
<ele>409.43</ele>
<time>2013-08-17T12:49:09Z</time>
</trkpt>
<trkpt lat="45.38605491165072" lon="4.698648154735565">
<ele>409.87</ele>
<time>2013-08-17T12:49:15Z</time>
</trkpt>
<trkpt lat="45.38610130548477" lon="4.698358308523893">
<ele>410.34</ele>
<time>2013-08-17T12:49:22Z</time>
</trkpt>
<trkpt lat="45.38616433739662" lon="4.698096122592688">
<ele>410.68</ele>
<time>2013-08-17T12:49:29Z</time>
</trkpt>
<trkpt lat="45.38623973261565" lon="4.697837457060814">
<ele>411.37</ele>
<time>2013-08-17T12:49:38Z</time>
</trkpt>
<trkpt lat="45.38629031740129" lon="4.697587927803397">
<ele>412.12</ele>
<time>2013-08-17T12:49:49Z</time>
</trkpt>
<trkpt lat="45.386395803652704" lon="4.697379134595394">
<ele>412.89</ele>
<time>2013-08-17T12:49:59Z</time>
</trkpt>
<trkpt lat="45.38646637927741" lon="4.697122648358345">
<ele>414.32</ele>
<time>2013-08-17T12:50:12Z</time>
</trkpt>
<trkpt lat="45.38648490328342" lon="4.696845458820462">
<ele>418.96</ele>
<time>2013-08-17T12:50:25Z</time>
</trkpt>
<trkpt lat="45.386485238559544" lon="4.696565670892596">
<ele>421.11</ele>
<time>2013-08-17T12:50:35Z</time>
</trkpt>
<trkpt lat="45.38651046808809" lon="4.6962857991456985">
<ele>422.18</ele>
<time>2013-08-17T12:50:45Z</time>
</trkpt>
<trkpt lat="45.38655510172248" lon="4.696019338443875">
<ele>423.23</ele>
<time>2013-08-17T12:50:54Z</time>
</trkpt>
<trkpt lat="45.386527022346854" lon="4.695739885792136">
<ele>423.28</ele>
<time>2013-08-17T12:51:02Z</time>
</trkpt>
<trkpt lat="45.38643557578325" lon="4.695484908297658">
<ele>423.51</ele>
<time>2013-08-17T12:51:11Z</time>
</trkpt>
<trkpt lat="45.386277115903795" lon="4.695321461185813">
<ele>424.23</ele>
<time>2013-08-17T12:51:19Z</time>
</trkpt>
<trkpt lat="45.38627564907074" lon="4.6950415056198835">
<ele>425.61</ele>
<time>2013-08-17T12:51:26Z</time>
</trkpt>
<trkpt lat="45.38628143258393" lon="4.694747636094689">
<ele>425.88</ele>
<time>2013-08-17T12:51:32Z</time>
</trkpt>
<trkpt lat="45.3861854178831" lon="4.694521073251963">
<ele>426.26</ele>
<time>2013-08-17T12:51:37Z</time>
</trkpt>
<trkpt lat="45.3860427159816" lon="4.6943023055791855">
<ele>426.78</ele>
<time>2013-08-17T12:51:42Z</time>
</trkpt>
<trkpt lat="45.385908144526184" lon="4.694105666130781">
<ele>426.93</ele>
<time>2013-08-17T12:51:46Z</time>
</trkpt>
<trkpt lat="45.385762550868094" lon="4.6938837971538305">
<ele>427.05</ele>
<time>2013-08-17T12:51:50Z</time>
</trkpt>
<trkpt lat="45.38561859168112" lon="4.693662011995912">
<ele>427.04</ele>
<time>2013-08-17T12:51:54Z</time>
</trkpt>
<trkpt lat="45.38546147290617" lon="4.693398401141167">
<ele>427.08</ele>
<time>2013-08-17T12:51:58Z</time>
</trkpt>
<trkpt lat="45.385310598649085" lon="4.693214250728488">
<ele>427.39</ele>
<time>2013-08-17T12:52:01Z</time>
</trkpt>
<trkpt lat="45.38514979183674" lon="4.693046780303121">
<ele>427.67</ele>
<time>2013-08-17T12:52:04Z</time>
</trkpt>
<trkpt lat="45.38499803747982" lon="4.692865731194615">
<ele>427.87</ele>
<time>2013-08-17T12:52:07Z</time>
</trkpt>
<trkpt lat="45.38485080935061" lon="4.692683760076761">
<ele>428.34</ele>
<time>2013-08-17T12:52:10Z</time>
</trkpt>
<trkpt lat="45.38471967447549" lon="4.69249558635056">
<ele>428.72</ele>
<time>2013-08-17T12:52:13Z</time>
</trkpt>
<trkpt lat="45.38461485877633" lon="4.692258043214679">
<ele>429.03</ele>
<time>2013-08-17T12:52:16Z</time>
</trkpt>
<trkpt lat="45.38451947271824" lon="4.692019410431385">
<ele>429.45</ele>
<time>2013-08-17T12:52:19Z</time>
</trkpt>
<trkpt lat="45.38442609831691" lon="4.6917960327118635">
<ele>429.71</ele>
<time>2013-08-17T12:52:22Z</time>
</trkpt>
<trkpt lat="45.3843375435099" lon="4.691567542031407">
<ele>429.97</ele>
<time>2013-08-17T12:52:25Z</time>
</trkpt>
<trkpt lat="45.38424580357969" lon="4.691268224269152">
<ele>430.20</ele>
<time>2013-08-17T12:52:29Z</time>
</trkpt>
<trkpt lat="45.38418021518737" lon="4.69098181463778">
<ele>430.63</ele>
<time>2013-08-17T12:52:33Z</time>
</trkpt>
<trkpt lat="45.38409283384681" lon="4.6906916331499815">
<ele>430.99</ele>
<time>2013-08-17T12:52:37Z</time>
</trkpt>
<trkpt lat="45.38399702869356" lon="4.690409833565354">
<ele>431.05</ele>
<time>2013-08-17T12:52:41Z</time>
</trkpt>
<trkpt lat="45.383857009001076" lon="4.69019022770226">
<ele>431.17</ele>
<time>2013-08-17T12:52:45Z</time>
</trkpt>
<trkpt lat="45.38370148278773" lon="4.689987972378731">
<ele>431.43</ele>
<time>2013-08-17T12:52:49Z</time>
</trkpt>
<trkpt lat="45.38354754913598" lon="4.689785800874233">
<ele>431.43</ele>
<time>2013-08-17T12:52:53Z</time>
</trkpt>
<trkpt lat="45.38338711950928" lon="4.689570805057883">
<ele>431.37</ele>
<time>2013-08-17T12:52:57Z</time>
</trkpt>
<trkpt lat="45.383215919137" lon="4.68936980701983">
<ele>431.28</ele>
<time>2013-08-17T12:53:01Z</time>
</trkpt>
<trkpt lat="45.383037300780416" lon="4.689173502847552">
<ele>431.41</ele>
<time>2013-08-17T12:53:05Z</time>
</trkpt>
<trkpt lat="45.38287536241114" lon="4.688988514244556">
<ele>432.46</ele>
<time>2013-08-17T12:53:09Z</time>
</trkpt>
<trkpt lat="45.38274385035038" lon="4.688797406852245">
<ele>433.78</ele>
<time>2013-08-17T12:53:13Z</time>
</trkpt>
<trkpt lat="45.38263748399913" lon="4.688577800989151">
<ele>435.11</ele>
<time>2013-08-17T12:53:18Z</time>
</trkpt>
<trkpt lat="45.382511797361076" lon="4.688357021659613">
<ele>435.85</ele>
<time>2013-08-17T12:53:23Z</time>
</trkpt>
<trkpt lat="45.38232115097344" lon="4.688192987814546">
<ele>436.32</ele>
<time>2013-08-17T12:53:28Z</time>
</trkpt>
<trkpt lat="45.38220082875341" lon="4.6879995334893465">
<ele>436.72</ele>
<time>2013-08-17T12:53:33Z</time>
</trkpt>
<trkpt lat="45.38211805745959" lon="4.687753105536103">
<ele>437.07</ele>
<time>2013-08-17T12:53:39Z</time>
</trkpt>
<trkpt lat="45.382011397741735" lon="4.687516735866666">
<ele>437.87</ele>
<time>2013-08-17T12:53:47Z</time>
</trkpt>
<trkpt lat="45.38188910577446" lon="4.6873189229518175">
<ele>439.19</ele>
<time>2013-08-17T12:53:55Z</time>
</trkpt>
<trkpt lat="45.381766310893" lon="4.687117841094732">
<ele>440.84</ele>
<time>2013-08-17T12:54:04Z</time>
</trkpt>
<trkpt lat="45.38167322985828" lon="4.686883734539151">
<ele>442.24</ele>
<time>2013-08-17T12:54:15Z</time>
</trkpt>
<trkpt lat="45.38150324486196" lon="4.686748869717121">
<ele>443.18</ele>
<time>2013-08-17T12:54:24Z</time>
</trkpt>
<trkpt lat="45.381344449706376" lon="4.686622554436326">
<ele>444.25</ele>
<time>2013-08-17T12:54:32Z</time>
</trkpt>
<trkpt lat="45.38119525182992" lon="4.68644879758358">
<ele>445.38</ele>
<time>2013-08-17T12:54:40Z</time>
</trkpt>
<trkpt lat="45.38104886189103" lon="4.686256516724825">
<ele>446.05</ele>
<time>2013-08-17T12:54:47Z</time>
</trkpt>
<trkpt lat="45.38103058934212" lon="4.685998689383268">
<ele>447.27</ele>
<time>2013-08-17T12:54:57Z</time>
</trkpt>
<trkpt lat="45.381040018983185" lon="4.685713117942214">
<ele>448.34</ele>
<time>2013-08-17T12:55:09Z</time>
</trkpt>
<trkpt lat="45.38107618689537" lon="4.685439867898822">
<ele>449.94</ele>
<time>2013-08-17T12:55:19Z</time>
</trkpt>
<trkpt lat="45.381096974015236" lon="4.685180699452758">
<ele>450.92</ele>
<time>2013-08-17T12:55:30Z</time>
</trkpt>
<trkpt lat="45.38111344445497" lon="4.684912981465459">
<ele>451.52</ele>
<time>2013-08-17T12:55:41Z</time>
</trkpt>
<trkpt lat="45.38113833870739" lon="4.6846492029726505">
<ele>452.57</ele>
<time>2013-08-17T12:55:51Z</time>
</trkpt>
<trkpt lat="45.38117785938084" lon="4.684376372024417">
<ele>454.17</ele>
<time>2013-08-17T12:56:01Z</time>
</trkpt>
<trkpt lat="45.381247135810554" lon="4.6841152757406235">
<ele>455.92</ele>
<time>2013-08-17T12:56:12Z</time>
</trkpt>
<trkpt lat="45.38133627735078" lon="4.683873038738966">
<ele>456.98</ele>
<time>2013-08-17T12:56:21Z</time>
</trkpt>
<trkpt lat="45.38139792624861" lon="4.68361965380609">
<ele>458.55</ele>
<time>2013-08-17T12:56:30Z</time>
</trkpt>
<trkpt lat="45.38147080689669" lon="4.683370711281896">
<ele>462.24</ele>
<time>2013-08-17T12:58:08Z</time>
</trkpt>
<trkpt lat="45.381483966484666" lon="4.683099053800106">
<ele>464.26</ele>
<time>2013-08-17T12:58:18Z</time>
</trkpt>
<trkpt lat="45.38144934922457" lon="4.6828285697847605">
<ele>466.03</ele>
<time>2013-08-17T12:58:28Z</time>
</trkpt>
<trkpt lat="45.38138589821756" lon="4.682561103254557">
<ele>467.66</ele>
<time>2013-08-17T12:58:39Z</time>
</trkpt>
<trkpt lat="45.381355681456625" lon="4.682293888181448">
<ele>469.19</ele>
<time>2013-08-17T12:58:50Z</time>
</trkpt>
<trkpt lat="45.381349311210215" lon="4.682036144658923">
<ele>470.98</ele>
<time>2013-08-17T12:59:00Z</time>
</trkpt>
<trkpt lat="45.38136703893542" lon="4.681759541854262">
<ele>473.18</ele>
<time>2013-08-17T12:59:10Z</time>
</trkpt>
<trkpt lat="45.38138610776514" lon="4.681491069495678">
<ele>474.85</ele>
<time>2013-08-17T12:59:21Z</time>
</trkpt>
<trkpt lat="45.3814018657431" lon="4.6812282130122185">
<ele>475.95</ele>
<time>2013-08-17T12:59:31Z</time>
</trkpt>
<trkpt lat="45.38141393568367" lon="4.680973067879677">
<ele>477.77</ele>
<time>2013-08-17T12:59:39Z</time>
</trkpt>
<trkpt lat="45.38144696038216" lon="4.680719850584865">
<ele>479.63</ele>
<time>2013-08-17T12:59:52Z</time>
</trkpt>
<trkpt lat="45.381433800794184" lon="4.6804503723979">
<ele>480.64</ele>
<time>2013-08-17T13:00:07Z</time>
</trkpt>
<trkpt lat="45.381376845762134" lon="4.680191287770867">
<ele>480.72</ele>
<time>2013-08-17T13:00:17Z</time>
</trkpt>
<trkpt lat="45.38131930399686" lon="4.679934550076723">
<ele>483.16</ele>
<time>2013-08-17T13:00:28Z</time>
</trkpt>
<trkpt lat="45.38126536644995" lon="4.679676052182913">
<ele>485.55</ele>
<time>2013-08-17T13:00:40Z</time>
</trkpt>
<trkpt lat="45.38122291211039" lon="4.679406154900789">
<ele>487.73</ele>
<time>2013-08-17T13:00:51Z</time>
</trkpt>
<trkpt lat="45.38116704672575" lon="4.679146651178598">
<ele>490.73</ele>
<time>2013-08-17T13:01:02Z</time>
</trkpt>
<trkpt lat="45.381107702851295" lon="4.678893266245723">
<ele>493.00</ele>
<time>2013-08-17T13:01:13Z</time>
</trkpt>
<trkpt lat="45.38103452883661" lon="4.678646586835384">
<ele>495.18</ele>
<time>2013-08-17T13:01:24Z</time>
</trkpt>
<trkpt lat="45.380964037030935" lon="4.6784065291285515">
<ele>497.05</ele>
<time>2013-08-17T13:01:37Z</time>
</trkpt>
<trkpt lat="45.38105929736048" lon="4.6781806368380785">
<ele>509.65</ele>
<time>2013-08-17T13:06:33Z</time>
</trkpt>
<trkpt lat="45.3812084114179" lon="4.67803169041872">
<ele>509.63</ele>
<time>2013-08-17T13:06:43Z</time>
</trkpt>
<trkpt lat="45.381342940963805" lon="4.677850306034088">
<ele>509.79</ele>
<time>2013-08-17T13:06:52Z</time>
</trkpt>
<trkpt lat="45.38144670892507" lon="4.677625084295869">
<ele>509.76</ele>
<time>2013-08-17T13:07:03Z</time>
</trkpt>
<trkpt lat="45.38161300588399" lon="4.677486112341285">
<ele>510.84</ele>
<time>2013-08-17T13:07:15Z</time>
</trkpt>
<trkpt lat="45.381751977838576" lon="4.677309673279524">
<ele>511.64</ele>
<time>2013-08-17T13:07:30Z</time>
</trkpt>
<trkpt lat="45.381898786872625" lon="4.677120493724942">
<ele>513.37</ele>
<time>2013-08-17T13:07:41Z</time>
</trkpt>
<trkpt lat="45.382056115195155" lon="4.676980348303914">
<ele>515.14</ele>
<time>2013-08-17T13:07:53Z</time>
</trkpt>
<trkpt lat="45.382267171517015" lon="4.676997195929289">
<ele>515.79</ele>
<time>2013-08-17T13:08:01Z</time>
</trkpt>
<trkpt lat="45.382424499839544" lon="4.67712233774364">
<ele>516.40</ele>
<time>2013-08-17T13:08:06Z</time>
</trkpt>
<trkpt lat="45.38258497137576" lon="4.677260220050812">
<ele>516.59</ele>
<time>2013-08-17T13:08:11Z</time>
</trkpt>
<trkpt lat="45.38277423474938" lon="4.677359964698553">
<ele>517.12</ele>
<time>2013-08-17T13:08:16Z</time>
</trkpt>
<trkpt lat="45.38297317922115" lon="4.677426936104894">
<ele>517.86</ele>
<time>2013-08-17T13:08:21Z</time>
</trkpt>
<trkpt lat="45.38316726218909" lon="4.677469935268164">
<ele>518.39</ele>
<time>2013-08-17T13:08:26Z</time>
</trkpt>
<trkpt lat="45.383347095921636" lon="4.677546378225088">
<ele>518.91</ele>
<time>2013-08-17T13:08:34Z</time>
</trkpt>
<trkpt lat="45.38354402873665" lon="4.677651906386018">
<ele>520.09</ele>
<time>2013-08-17T13:08:41Z</time>
</trkpt>
<trkpt lat="45.3837090684101" lon="4.677764810621738">
<ele>521.18</ele>
<time>2013-08-17T13:08:48Z</time>
</trkpt>
<trkpt lat="45.38389321882278" lon="4.677883749827743">
<ele>522.72</ele>
<time>2013-08-17T13:08:55Z</time>
</trkpt>
<trkpt lat="45.3840552829206" lon="4.678018279373646">
<ele>523.71</ele>
<time>2013-08-17T13:09:02Z</time>
</trkpt>
<trkpt lat="45.3842365834862" lon="4.678150545805693">
<ele>524.29</ele>
<time>2013-08-17T13:09:08Z</time>
</trkpt>
<trkpt lat="45.3844038862735" lon="4.678290523588657">
<ele>524.69</ele>
<time>2013-08-17T13:09:13Z</time>
</trkpt>
<trkpt lat="45.38458774331957" lon="4.6783641166985035">
<ele>524.80</ele>
<time>2013-08-17T13:09:17Z</time>
</trkpt>
<trkpt lat="45.38478916045278" lon="4.6784548088908195">
<ele>524.76</ele>
<time>2013-08-17T13:09:22Z</time>
</trkpt>
<trkpt lat="45.38496937137097" lon="4.678530246019363">
<ele>524.61</ele>
<time>2013-08-17T13:09:27Z</time>
</trkpt>
<trkpt lat="45.38514136802405" lon="4.678656980395317">
<ele>523.08</ele>
<time>2013-08-17T13:09:32Z</time>
</trkpt>
<trkpt lat="45.385336498729885" lon="4.678720850497484">
<ele>522.54</ele>
<time>2013-08-17T13:09:37Z</time>
</trkpt>
<trkpt lat="45.385514446534216" lon="4.678812213242054">
<ele>522.40</ele>
<time>2013-08-17T13:09:43Z</time>
</trkpt>
<trkpt lat="45.385711546987295" lon="4.6789690386503935">
<ele>522.03</ele>
<time>2013-08-17T13:09:48Z</time>
</trkpt>
<trkpt lat="45.38589846342802" lon="4.679078422486782">
<ele>520.89</ele>
<time>2013-08-17T13:09:52Z</time>
</trkpt>
<trkpt lat="45.386081230826676" lon="4.679231056943536">
<ele>518.29</ele>
<time>2013-08-17T13:09:56Z</time>
</trkpt>
<trkpt lat="45.38611718919128" lon="4.679488884285092">
<ele>515.90</ele>
<time>2013-08-17T13:10:02Z</time>
</trkpt>
<trkpt lat="45.38629094604403" lon="4.679580582305789">
<ele>516.60</ele>
<time>2013-08-17T13:10:33Z</time>
</trkpt>
<trkpt lat="45.386460847221315" lon="4.679669765755534">
<ele>517.64</ele>
<time>2013-08-17T13:10:42Z</time>
</trkpt>
<trkpt lat="45.38664575200528" lon="4.679720895364881">
<ele>517.86</ele>
<time>2013-08-17T13:10:50Z</time>
</trkpt>
<trkpt lat="45.38683120161295" lon="4.679690469056368">
<ele>518.21</ele>
<time>2013-08-17T13:11:00Z</time>
</trkpt>
<trkpt lat="45.387030774727464" lon="4.679742101579905">
<ele>517.21</ele>
<time>2013-08-17T13:11:10Z</time>
</trkpt>
<trkpt lat="45.387231730856" lon="4.679753752425313">
<ele>516.83</ele>
<time>2013-08-17T13:11:16Z</time>
</trkpt>
<trkpt lat="45.387379210442305" lon="4.679590305313468">
<ele>518.03</ele>
<time>2013-08-17T13:11:31Z</time>
</trkpt>
<trkpt lat="45.38753892760724" lon="4.679471701383591">
<ele>520.02</ele>
<time>2013-08-17T13:11:43Z</time>
</trkpt>
<trkpt lat="45.38766473997384" lon="4.679251927882433">
<ele>522.39</ele>
<time>2013-08-17T13:12:03Z</time>
</trkpt>
<trkpt lat="45.38780501112342" lon="4.679072974249721">
<ele>524.09</ele>
<time>2013-08-17T13:12:17Z</time>
</trkpt>
<trkpt lat="45.38795039523393" lon="4.678908521309495">
<ele>525.90</ele>
<time>2013-08-17T13:12:32Z</time>
</trkpt>
<trkpt lat="45.38806028198451" lon="4.678706014528871">
<ele>527.74</ele>
<time>2013-08-17T13:12:45Z</time>
</trkpt>
<trkpt lat="45.3881572606042" lon="4.6784817148">
<ele>528.97</ele>
<time>2013-08-17T13:12:57Z</time>
</trkpt>
<trkpt lat="45.388231608085334" lon="4.678247859701514">
<ele>529.81</ele>
<time>2013-08-17T13:13:08Z</time>
</trkpt>
<trkpt lat="45.38835708517581" lon="4.678048286587">
<ele>530.13</ele>
<time>2013-08-17T13:13:15Z</time>
</trkpt>
<trkpt lat="45.38837837520987" lon="4.677794314920902">
<ele>529.96</ele>
<time>2013-08-17T13:13:21Z</time>
</trkpt>
<trkpt lat="45.388402976095676" lon="4.677531374618411">
<ele>530.01</ele>
<time>2013-08-17T13:13:27Z</time>
</trkpt>
<trkpt lat="45.38842690642923" lon="4.677267428487539">
<ele>530.13</ele>
<time>2013-08-17T13:13:34Z</time>
</trkpt>
<trkpt lat="45.38848679512739" lon="4.676993507891893">
<ele>531.71</ele>
<time>2013-08-17T13:13:41Z</time>
</trkpt>
<trkpt lat="45.38849048316479" lon="4.676737105473876">
<ele>532.29</ele>
<time>2013-08-17T13:13:47Z</time>
</trkpt>
<trkpt lat="45.38847195915878" lon="4.676476093009114">
<ele>532.63</ele>
<time>2013-08-17T13:13:54Z</time>
</trkpt>
<trkpt lat="45.38842103909701" lon="4.676225474104285">
<ele>533.35</ele>
<time>2013-08-17T13:14:00Z</time>
</trkpt>
<trkpt lat="45.38833516649902" lon="4.6759950555861">
<ele>535.16</ele>
<time>2013-08-17T13:14:07Z</time>
</trkpt>
<trkpt lat="45.38824015762657" lon="4.675745191052556">
<ele>537.21</ele>
<time>2013-08-17T13:14:14Z</time>
</trkpt>
<trkpt lat="45.38814523257315" lon="4.675515443086624">
<ele>539.40</ele>
<time>2013-08-17T13:14:21Z</time>
</trkpt>
<trkpt lat="45.388075285591185" lon="4.675274966284633">
<ele>542.32</ele>
<time>2013-08-17T13:14:29Z</time>
</trkpt>
<trkpt lat="45.38800923619419" lon="4.675031052902341">
<ele>544.33</ele>
<time>2013-08-17T13:14:35Z</time>
</trkpt>
<trkpt lat="45.38790534250438" lon="4.674769202247262">
<ele>545.92</ele>
<time>2013-08-17T13:14:40Z</time>
</trkpt>
<trkpt lat="45.38778007496148" lon="4.674507770687342">
<ele>547.30</ele>
<time>2013-08-17T13:14:45Z</time>
</trkpt>
<trkpt lat="45.387657950632274" lon="4.674252290278673">
<ele>547.94</ele>
<time>2013-08-17T13:14:50Z</time>
</trkpt>
<trkpt lat="45.387534191831946" lon="4.674007035791874">
<ele>548.73</ele>
<time>2013-08-17T13:14:55Z</time>
</trkpt>
<trkpt lat="45.38739806972444" lon="4.673772342503071">
<ele>549.93</ele>
<time>2013-08-17T13:15:01Z</time>
</trkpt>
<trkpt lat="45.38728436920792" lon="4.673562878742814">
<ele>550.90</ele>
<time>2013-08-17T13:15:07Z</time>
</trkpt>
<trkpt lat="45.38722175639123" lon="4.673309493809938">
<ele>552.60</ele>
<time>2013-08-17T13:15:13Z</time>
</trkpt>
<trkpt lat="45.387161071412265" lon="4.6730641555041075">
<ele>554.02</ele>
<time>2013-08-17T13:15:18Z</time>
</trkpt>
<trkpt lat="45.38710093125701" lon="4.672789983451366">
<ele>555.24</ele>
<time>2013-08-17T13:15:23Z</time>
</trkpt>
<trkpt lat="45.38708990905434" lon="4.672527965158224">
<ele>555.45</ele>
<time>2013-08-17T13:15:27Z</time>
</trkpt>
<trkpt lat="45.38717083632946" lon="4.672243734821677">
<ele>555.85</ele>
<time>2013-08-17T13:15:32Z</time>
</trkpt>
<trkpt lat="45.38733181077987" lon="4.672058830037713">
<ele>556.55</ele>
<time>2013-08-17T13:15:38Z</time>
</trkpt>
<trkpt lat="45.38748872000724" lon="4.6719052735716105">
<ele>557.29</ele>
<time>2013-08-17T13:15:45Z</time>
</trkpt>
<trkpt lat="45.387666961178184" lon="4.671865710988641">
<ele>557.91</ele>
<time>2013-08-17T13:15:51Z</time>
</trkpt>
<trkpt lat="45.3878432745114" lon="4.67192966490984">
<ele>557.20</ele>
<time>2013-08-17T13:15:56Z</time>
</trkpt>
<trkpt lat="45.38806229364127" lon="4.671905022114515">
<ele>555.23</ele>
<time>2013-08-17T13:15:59Z</time>
</trkpt>
<trkpt lat="45.388256376609206" lon="4.67183880507946">
<ele>553.95</ele>
<time>2013-08-17T13:16:02Z</time>
</trkpt>
<trkpt lat="45.388443754054606" lon="4.671819694340229">
<ele>553.65</ele>
<time>2013-08-17T13:16:07Z</time>
</trkpt>
<trkpt lat="45.388630419038236" lon="4.671826651319861">
<ele>555.21</ele>
<time>2013-08-17T13:16:20Z</time>
</trkpt>
<trkpt lat="45.388816078193486" lon="4.671681057661772">
<ele>555.56</ele>
<time>2013-08-17T13:16:37Z</time>
</trkpt>
<trkpt lat="45.389006389304996" lon="4.671552311629057">
<ele>555.71</ele>
<time>2013-08-17T13:16:41Z</time>
</trkpt>
<trkpt lat="45.38922859355807" lon="4.671508641913533">
<ele>555.09</ele>
<time>2013-08-17T13:16:44Z</time>
</trkpt>
<trkpt lat="45.38942154496908" lon="4.671514090150595">
<ele>553.74</ele>
<time>2013-08-17T13:16:46Z</time>
</trkpt>
<trkpt lat="45.3896190226078" lon="4.6715466119349">
<ele>552.60</ele>
<time>2013-08-17T13:16:49Z</time>
</trkpt>
<trkpt lat="45.38985107559711" lon="4.671610482037067">
<ele>551.82</ele>
<time>2013-08-17T13:16:52Z</time>
</trkpt>
<trkpt lat="45.39001137949526" lon="4.67172933742404">
<ele>551.07</ele>
<time>2013-08-17T13:16:54Z</time>
</trkpt>
<trkpt lat="45.390236265957355" lon="4.671911392360926">
<ele>549.94</ele>
<time>2013-08-17T13:16:57Z</time>
</trkpt>
<trkpt lat="45.39043080992997" lon="4.672131836414337">
<ele>549.09</ele>
<time>2013-08-17T13:17:00Z</time>
</trkpt>
<trkpt lat="45.39060326758772" lon="4.672373067587614">
<ele>548.22</ele>
<time>2013-08-17T13:17:03Z</time>
</trkpt>
<trkpt lat="45.3907572850585" lon="4.672620417550206">
<ele>547.66</ele>
<time>2013-08-17T13:17:06Z</time>
</trkpt>
<trkpt lat="45.39089793339372" lon="4.672861900180578">
<ele>547.27</ele>
<time>2013-08-17T13:17:09Z</time>
</trkpt>
<trkpt lat="45.39103912655264" lon="4.673096425831318">
<ele>547.01</ele>
<time>2013-08-17T13:17:12Z</time>
</trkpt>
<trkpt lat="45.39116967469454" lon="4.6733268443495035">
<ele>546.80</ele>
<time>2013-08-17T13:17:15Z</time>
</trkpt>
<trkpt lat="45.39132654201239" lon="4.673464642837644">
<ele>546.00</ele>
<time>2013-08-17T13:17:20Z</time>
</trkpt>
<trkpt lat="45.39139062166214" lon="4.67320354655385">
<ele>545.66</ele>
<time>2013-08-17T13:17:29Z</time>
</trkpt>
<trkpt lat="45.39145403075963" lon="4.672957621514797">
<ele>545.82</ele>
<time>2013-08-17T13:17:38Z</time>
</trkpt>
<trkpt lat="45.39148843847215" lon="4.672693507745862">
<ele>546.26</ele>
<time>2013-08-17T13:17:49Z</time>
</trkpt>
<trkpt lat="45.391672337427735" lon="4.672671295702457">
<ele>546.78</ele>
<time>2013-08-17T13:18:29Z</time>
</trkpt>
<trkpt lat="45.39186424110085" lon="4.672751594334841">
<ele>545.67</ele>
<time>2013-08-17T13:18:38Z</time>
</trkpt>
<trkpt lat="45.39204256609082" lon="4.672813704237342">
<ele>545.30</ele>
<time>2013-08-17T13:18:43Z</time>
</trkpt>
<trkpt lat="45.39225001819432" lon="4.672885201871395">
<ele>545.11</ele>
<time>2013-08-17T13:18:49Z</time>
</trkpt>
<trkpt lat="45.39243069011718" lon="4.672982599586248">
<ele>544.86</ele>
<time>2013-08-17T13:18:54Z</time>
</trkpt>
<trkpt lat="45.39261240977794" lon="4.6730653289705515">
<ele>544.43</ele>
<time>2013-08-17T13:18:58Z</time>
</trkpt>
<trkpt lat="45.39282283745706" lon="4.673146717250347">
<ele>544.05</ele>
<time>2013-08-17T13:19:02Z</time>
</trkpt>
<trkpt lat="45.39298967923969" lon="4.673252999782562">
<ele>543.86</ele>
<time>2013-08-17T13:19:05Z</time>
</trkpt>
<trkpt lat="45.39313736837357" lon="4.6730682626366615">
<ele>544.17</ele>
<time>2013-08-17T13:19:47Z</time>
</trkpt>
<trkpt lat="45.39324788376689" lon="4.672849411144853">
<ele>544.58</ele>
<time>2013-08-17T13:19:54Z</time>
</trkpt>
<trkpt lat="45.39338656235486" lon="4.672653190791607">
<ele>545.27</ele>
<time>2013-08-17T13:20:00Z</time>
</trkpt>
<trkpt lat="45.39354141801596" lon="4.672514973208308">
<ele>545.96</ele>
<time>2013-08-17T13:20:05Z</time>
</trkpt>
<trkpt lat="45.39371123537421" lon="4.6724150609225035">
<ele>546.32</ele>
<time>2013-08-17T13:20:10Z</time>
</trkpt>
<trkpt lat="45.393889686092734" lon="4.672294864431024">
<ele>546.63</ele>
<time>2013-08-17T13:20:17Z</time>
</trkpt>
<trkpt lat="45.394053594209254" lon="4.6721128933131695">
<ele>546.70</ele>
<time>2013-08-17T13:20:24Z</time>
</trkpt>
<trkpt lat="45.39421867579222" lon="4.671937627717853">
<ele>547.04</ele>
<time>2013-08-17T13:20:31Z</time>
</trkpt>
<trkpt lat="45.39437646511942" lon="4.671751298010349">
<ele>547.56</ele>
<time>2013-08-17T13:20:37Z</time>
</trkpt>
<trkpt lat="45.39452331606299" lon="4.671588186174631">
<ele>547.76</ele>
<time>2013-08-17T13:20:43Z</time>
</trkpt>
<trkpt lat="45.39471190888435" lon="4.671556921675801">
<ele>547.82</ele>
<time>2013-08-17T13:20:52Z</time>
</trkpt>
<trkpt lat="45.39489983115345" lon="4.671562872827053">
<ele>548.63</ele>
<time>2013-08-17T13:21:00Z</time>
</trkpt>
<trkpt lat="45.39507974870503" lon="4.671624563634396">
<ele>550.27</ele>
<time>2013-08-17T13:21:14Z</time>
</trkpt>
<trkpt lat="45.3952281922102" lon="4.6718010026961565">
<ele>551.43</ele>
<time>2013-08-17T13:21:27Z</time>
</trkpt>
<trkpt lat="45.395378773100674" lon="4.671971406787634">
<ele>553.10</ele>
<time>2013-08-17T13:21:38Z</time>
</trkpt>
<trkpt lat="45.39551845751703" lon="4.672134183347225">
<ele>555.63</ele>
<time>2013-08-17T13:21:49Z</time>
</trkpt>
<trkpt lat="45.39568152744323" lon="4.672273490577936">
<ele>557.44</ele>
<time>2013-08-17T13:22:00Z</time>
</trkpt>
<trkpt lat="45.395825863815844" lon="4.672455629333854">
<ele>559.11</ele>
<time>2013-08-17T13:22:15Z</time>
</trkpt>
<trkpt lat="45.395961524918675" lon="4.672634080052376">
<ele>560.64</ele>
<time>2013-08-17T13:22:27Z</time>
</trkpt>
<trkpt lat="45.39613318629563" lon="4.672761904075742">
<ele>561.74</ele>
<time>2013-08-17T13:22:37Z</time>
</trkpt>
<trkpt lat="45.3963117627427" lon="4.672854775562882">
<ele>563.14</ele>
<time>2013-08-17T13:22:51Z</time>
</trkpt>
<trkpt lat="45.39648522622883" lon="4.672972206026316">
<ele>565.67</ele>
<time>2013-08-17T13:23:06Z</time>
</trkpt>
<trkpt lat="45.39664096198976" lon="4.6731015387922525">
<ele>571.02</ele>
<time>2013-08-17T13:23:35Z</time>
</trkpt>
<trkpt lat="45.39679518900812" lon="4.6732372418046">
<ele>572.48</ele>
<time>2013-08-17T13:25:00Z</time>
</trkpt>
<trkpt lat="45.39696685038507" lon="4.673325251787901">
<ele>572.78</ele>
<time>2013-08-17T13:25:14Z</time>
</trkpt>
<trkpt lat="45.39710728917271" lon="4.673516023904085">
<ele>573.58</ele>
<time>2013-08-17T13:25:27Z</time>
</trkpt>
<trkpt lat="45.39725782815367" lon="4.673694474622607">
<ele>575.51</ele>
<time>2013-08-17T13:25:39Z</time>
</trkpt>
<trkpt lat="45.39740120060742" lon="4.673849204555154">
<ele>576.84</ele>
<time>2013-08-17T13:25:50Z</time>
</trkpt>
<trkpt lat="45.39755140431225" lon="4.6739965584129095">
<ele>577.69</ele>
<time>2013-08-17T13:26:01Z</time>
</trkpt>
<trkpt lat="45.39768903516233" lon="4.674176853150129">
<ele>578.43</ele>
<time>2013-08-17T13:26:11Z</time>
</trkpt>
<trkpt lat="45.39782633073628" lon="4.674367289990187">
<ele>579.62</ele>
<time>2013-08-17T13:26:21Z</time>
</trkpt>
<trkpt lat="45.39793873205781" lon="4.6745687909424305">
<ele>580.09</ele>
<time>2013-08-17T13:26:30Z</time>
</trkpt>
<trkpt lat="45.398080637678504" lon="4.674764424562454">
<ele>580.01</ele>
<time>2013-08-17T13:26:36Z</time>
</trkpt>
<trkpt lat="45.39823151193559" lon="4.674934493377805">
<ele>580.37</ele>
<time>2013-08-17T13:26:42Z</time>
</trkpt>
<trkpt lat="45.398413189686835" lon="4.674931392073631">
<ele>582.60</ele>
<time>2013-08-17T13:27:01Z</time>
</trkpt>
<trkpt lat="45.39854738395661" lon="4.675107914954424">
<ele>592.53</ele>
<time>2013-08-17T13:29:29Z</time>
</trkpt>
<trkpt lat="45.39873015135527" lon="4.675107663497329">
<ele>592.71</ele>
<time>2013-08-17T13:29:47Z</time>
</trkpt>
<trkpt lat="45.39888995233923" lon="4.674959136173129">
<ele>593.08</ele>
<time>2013-08-17T13:30:02Z</time>
</trkpt>
<trkpt lat="45.39889887906611" lon="4.67469971626997">
<ele>594.87</ele>
<time>2013-08-17T13:30:24Z</time>
</trkpt>
<trkpt lat="45.398788657039404" lon="4.674483295530081">
<ele>597.08</ele>
<time>2013-08-17T13:30:42Z</time>
</trkpt>
<trkpt lat="45.398667957633734" lon="4.674288248643279">
<ele>599.32</ele>
<time>2013-08-17T13:31:00Z</time>
</trkpt>
<trkpt lat="45.39861640892923" lon="4.6740430779755116">
<ele>600.65</ele>
<time>2013-08-17T13:31:18Z</time>
</trkpt>
<trkpt lat="45.39852257352322" lon="4.673806289210916">
<ele>599.78</ele>
<time>2013-08-17T13:31:31Z</time>
</trkpt>
<trkpt lat="45.39851226378232" lon="4.67355047352612">
<ele>600.86</ele>
<time>2013-08-17T13:31:44Z</time>
</trkpt>
<trkpt lat="45.39851653855294" lon="4.673284767195582">
<ele>601.59</ele>
<time>2013-08-17T13:32:01Z</time>
</trkpt>
<trkpt lat="45.39858200121671" lon="4.673041943460703">
<ele>604.36</ele>
<time>2013-08-17T13:32:15Z</time>
</trkpt>
<trkpt lat="45.398756763897836" lon="4.6729345712810755">
<ele>605.90</ele>
<time>2013-08-17T13:32:25Z</time>
</trkpt>
<trkpt lat="45.39893391542137" lon="4.6730458829551935">
<ele>608.40</ele>
<time>2013-08-17T13:32:44Z</time>
</trkpt>
<trkpt lat="45.399096314795315" lon="4.673168677836657">
<ele>609.84</ele>
<time>2013-08-17T13:32:59Z</time>
</trkpt>
<trkpt lat="45.399281554855406" lon="4.673272278159857">
<ele>610.44</ele>
<time>2013-08-17T13:33:11Z</time>
</trkpt>
<trkpt lat="45.39946117904037" lon="4.673331454396248">
<ele>611.43</ele>
<time>2013-08-17T13:33:21Z</time>
</trkpt>
<trkpt lat="45.39966196753085" lon="4.6733442787081">
<ele>611.74</ele>
<time>2013-08-17T13:33:30Z</time>
</trkpt>
<trkpt lat="45.3998500155285" lon="4.673371938988566">
<ele>614.21</ele>
<time>2013-08-17T13:33:41Z</time>
</trkpt>
<trkpt lat="45.400040368549526" lon="4.6734025329351425">
<ele>613.89</ele>
<time>2013-08-17T13:33:49Z</time>
</trkpt>
<trkpt lat="45.40022548288107" lon="4.673350313678384">
<ele>615.38</ele>
<time>2013-08-17T13:33:58Z</time>
</trkpt>
<trkpt lat="45.400409968569875" lon="4.673297759145498">
<ele>617.51</ele>
<time>2013-08-17T13:34:07Z</time>
</trkpt>
<trkpt lat="45.400599357672036" lon="4.673254257068038">
<ele>617.06</ele>
<time>2013-08-17T13:34:15Z</time>
</trkpt>
<trkpt lat="45.40077730547637" lon="4.673144621774554">
<ele>618.08</ele>
<time>2013-08-17T13:34:25Z</time>
</trkpt>
<trkpt lat="45.40096019860357" lon="4.673093827441335">
<ele>620.11</ele>
<time>2013-08-17T13:34:33Z</time>
</trkpt>
<trkpt lat="45.40115080308169" lon="4.672976145520806">
<ele>622.62</ele>
<time>2013-08-17T13:34:42Z</time>
</trkpt>
<trkpt lat="45.40129673201591" lon="4.6728026401251554">
<ele>623.99</ele>
<time>2013-08-17T13:34:48Z</time>
</trkpt>
<trkpt lat="45.40138738229871" lon="4.672573311254382">
<ele>624.85</ele>
<time>2013-08-17T13:34:54Z</time>
</trkpt>
<trkpt lat="45.40148440282792" lon="4.672344317659736">
<ele>625.57</ele>
<time>2013-08-17T13:35:00Z</time>
</trkpt>
<trkpt lat="45.401626392267644" lon="4.6721467562019825">
<ele>626.53</ele>
<time>2013-08-17T13:35:05Z</time>
</trkpt>
<trkpt lat="45.40178631898016" lon="4.671961767598987">
<ele>627.21</ele>
<time>2013-08-17T13:35:11Z</time>
</trkpt>
<trkpt lat="45.40190115105361" lon="4.671727158129215">
<ele>627.65</ele>
<time>2013-08-17T13:35:16Z</time>
</trkpt>
<trkpt lat="45.40203304030001" lon="4.671543342992663">
<ele>627.47</ele>
<time>2013-08-17T13:35:30Z</time>
</trkpt>
<trkpt lat="45.40219384711236" lon="4.6714213863015175">
<ele>624.91</ele>
<time>2013-08-17T13:35:47Z</time>
</trkpt>
<trkpt lat="45.4022780014202" lon="4.671171186491847">
<ele>625.79</ele>
<time>2013-08-17T13:35:55Z</time>
</trkpt>
<trkpt lat="45.40236165281385" lon="4.670927273109555">
<ele>626.31</ele>
<time>2013-08-17T13:36:02Z</time>
</trkpt>
<trkpt lat="45.40245879907161" lon="4.67067732475698">
<ele>626.57</ele>
<time>2013-08-17T13:36:09Z</time>
</trkpt>
<trkpt lat="45.4025385947898" lon="4.670445146039128">
<ele>626.45</ele>
<time>2013-08-17T13:36:15Z</time>
</trkpt>
<trkpt lat="45.40260891895741" lon="4.670194443315268">
<ele>625.92</ele>
<time>2013-08-17T13:36:25Z</time>
</trkpt>
<trkpt lat="45.402659378014505" lon="4.66993753798306">
<ele>626.79</ele>
<time>2013-08-17T13:36:42Z</time>
</trkpt>
<trkpt lat="45.40271054953337" lon="4.669689266011119">
<ele>628.79</ele>
<time>2013-08-17T13:37:06Z</time>
</trkpt>
<trkpt lat="45.40265585761517" lon="4.669437389820814">
<ele>630.63</ele>
<time>2013-08-17T13:37:23Z</time>
</trkpt>
<trkpt lat="45.402716752141714" lon="4.669182412326336">
<ele>642.33</ele>
<time>2013-08-17T13:37:55Z</time>
</trkpt>
<trkpt lat="45.40284285787493" lon="4.668982168659568">
<ele>643.98</ele>
<time>2013-08-17T13:38:06Z</time>
</trkpt>
<trkpt lat="45.40292378515005" lon="4.668737165629864">
<ele>644.88</ele>
<time>2013-08-17T13:38:17Z</time>
</trkpt>
<trkpt lat="45.40310127194971" lon="4.668685868382454">
<ele>643.31</ele>
<time>2013-08-17T13:38:38Z</time>
</trkpt>
<trkpt lat="45.403291624970734" lon="4.668676313012838">
<ele>643.84</ele>
<time>2013-08-17T13:38:50Z</time>
</trkpt>
<trkpt lat="45.4034728417173" lon="4.668675726279616">
<ele>644.56</ele>
<time>2013-08-17T13:38:56Z</time>
</trkpt>
<trkpt lat="45.403679120354354" lon="4.668708834797144">
<ele>645.68</ele>
<time>2013-08-17T13:39:03Z</time>
</trkpt>
<trkpt lat="45.403853547759354" lon="4.668638678267598">
<ele>646.43</ele>
<time>2013-08-17T13:39:10Z</time>
</trkpt>
<trkpt lat="45.40402839425951" lon="4.668525941669941">
<ele>647.94</ele>
<time>2013-08-17T13:39:20Z</time>
</trkpt>
<trkpt lat="45.40415278170258" lon="4.668714366853237">
<ele>648.37</ele>
<time>2013-08-17T13:39:31Z</time>
</trkpt>
<trkpt lat="45.404309229925275" lon="4.668905306607485">
<ele>645.63</ele>
<time>2013-08-17T13:39:43Z</time>
</trkpt>
<trkpt lat="45.40451546665281" lon="4.668951574712992">
<ele>647.72</ele>
<time>2013-08-17T13:39:49Z</time>
</trkpt>
<trkpt lat="45.40473205503076" lon="4.668995663523674">
<ele>648.42</ele>
<time>2013-08-17T13:39:53Z</time>
</trkpt>
<trkpt lat="45.40491042193025" lon="4.669052828103304">
<ele>648.67</ele>
<time>2013-08-17T13:39:56Z</time>
</trkpt>
<trkpt lat="45.405112761072814" lon="4.6691203862428665">
<ele>649.27</ele>
<time>2013-08-17T13:40:00Z</time>
</trkpt>
<trkpt lat="45.40527742356062" lon="4.669243348762393">
<ele>649.99</ele>
<time>2013-08-17T13:40:05Z</time>
</trkpt>
<trkpt lat="45.40547397918999" lon="4.669407969340682">
<ele>650.19</ele>
<time>2013-08-17T13:40:10Z</time>
</trkpt>
<trkpt lat="45.4056367976591" lon="4.669586420059204">
<ele>650.57</ele>
<time>2013-08-17T13:40:15Z</time>
</trkpt>
<trkpt lat="45.40580141823739" lon="4.669698737561703">
<ele>650.98</ele>
<time>2013-08-17T13:40:19Z</time>
</trkpt>
<trkpt lat="45.40599072352052" lon="4.669780880212784">
<ele>651.14</ele>
<time>2013-08-17T13:40:24Z</time>
</trkpt>
<trkpt lat="45.406161420978606" lon="4.669912559911609">
<ele>650.48</ele>
<time>2013-08-17T13:40:30Z</time>
</trkpt>
<trkpt lat="45.40624159388244" lon="4.67014130204916">
<ele>648.89</ele>
<time>2013-08-17T13:40:38Z</time>
</trkpt>
<trkpt lat="45.406276169233024" lon="4.670394854620099">
<ele>645.18</ele>
<time>2013-08-17T13:40:43Z</time>
</trkpt>
<trkpt lat="45.40636547841132" lon="4.670624602586031">
<ele>643.87</ele>
<time>2013-08-17T13:40:57Z</time>
</trkpt>
<trkpt lat="45.406434796750546" lon="4.670888716354966">
<ele>643.63</ele>
<time>2013-08-17T13:41:11Z</time>
</trkpt>
<trkpt lat="45.40657347533852" lon="4.671067586168647">
<ele>641.56</ele>
<time>2013-08-17T13:41:28Z</time>
</trkpt>
<trkpt lat="45.406708172522485" lon="4.671263638883829">
<ele>639.37</ele>
<time>2013-08-17T13:41:38Z</time>
</trkpt>
<trkpt lat="45.40687706787139" lon="4.671378303319216">
<ele>637.70</ele>
<time>2013-08-17T13:41:50Z</time>
</trkpt>
<trkpt lat="45.40704298764467" lon="4.671507636085153">
<ele>636.36</ele>
<time>2013-08-17T13:41:58Z</time>
</trkpt>
<trkpt lat="45.40712546557188" lon="4.671735791489482">
<ele>635.04</ele>
<time>2013-08-17T13:42:05Z</time>
</trkpt>
<trkpt lat="45.40730345528573" lon="4.671854143962264">
<ele>633.77</ele>
<time>2013-08-17T13:42:12Z</time>
</trkpt>
<trkpt lat="45.40745135396719" lon="4.672042988240719">
<ele>632.49</ele>
<time>2013-08-17T13:42:21Z</time>
</trkpt>
<trkpt lat="45.40757754351944" lon="4.672249015420675">
<ele>631.38</ele>
<time>2013-08-17T13:42:27Z</time>
</trkpt>
<trkpt lat="45.407754317857325" lon="4.672386394813657">
<ele>629.58</ele>
<time>2013-08-17T13:42:34Z</time>
</trkpt>
<trkpt lat="45.40787233505398" lon="4.672614550217986">
<ele>627.75</ele>
<time>2013-08-17T13:42:41Z</time>
</trkpt>
<trkpt lat="45.407928451895714" lon="4.672874892130494">
<ele>626.14</ele>
<time>2013-08-17T13:42:47Z</time>
</trkpt>
<trkpt lat="45.40787857957184" lon="4.6732482220977545">
<ele>623.26</ele>
<time>2013-08-17T13:42:56Z</time>
</trkpt>
<trkpt lat="45.40788683574647" lon="4.673513006418943">
<ele>622.13</ele>
<time>2013-08-17T13:43:01Z</time>
</trkpt>
<trkpt lat="45.40789924096316" lon="4.673808217048645">
<ele>621.79</ele>
<time>2013-08-17T13:43:07Z</time>
</trkpt>
<trkpt lat="45.40786961093545" lon="4.674075935035944">
<ele>620.08</ele>
<time>2013-08-17T13:43:14Z</time>
</trkpt>
<trkpt lat="45.407861773855984" lon="4.674367122352123">
<ele>618.41</ele>
<time>2013-08-17T13:43:21Z</time>
</trkpt>
<trkpt lat="45.40783348493278" lon="4.674627128988504">
<ele>617.41</ele>
<time>2013-08-17T13:43:27Z</time>
</trkpt>
<trkpt lat="45.407856996171176" lon="4.674884285777807">
<ele>616.60</ele>
<time>2013-08-17T13:43:33Z</time>
</trkpt>
<trkpt lat="45.407847189344466" lon="4.675140185281634">
<ele>615.22</ele>
<time>2013-08-17T13:43:40Z</time>
</trkpt>
<trkpt lat="45.40788800921291" lon="4.6753939893096685">
<ele>614.41</ele>
<time>2013-08-17T13:43:47Z</time>
</trkpt>
<trkpt lat="45.40796767920256" lon="4.675660198554397">
<ele>611.85</ele>
<time>2013-08-17T13:43:58Z</time>
</trkpt>
<trkpt lat="45.40809290483594" lon="4.675892796367407">
<ele>609.94</ele>
<time>2013-08-17T13:44:04Z</time>
</trkpt>
<trkpt lat="45.40816603694111" lon="4.676185576245189">
<ele>608.94</ele>
<time>2013-08-17T13:44:09Z</time>
</trkpt>
<trkpt lat="45.40812701918185" lon="4.676489336416125">
<ele>606.97</ele>
<time>2013-08-17T13:44:13Z</time>
</trkpt>
<trkpt lat="45.40804789401591" lon="4.676777757704258">
<ele>603.67</ele>
<time>2013-08-17T13:44:18Z</time>
</trkpt>
<trkpt lat="45.40798926260322" lon="4.677047235891223">
<ele>599.02</ele>
<time>2013-08-17T13:44:26Z</time>
</trkpt>
<trkpt lat="45.40798909496516" lon="4.677303805947304">
<ele>595.65</ele>
<time>2013-08-17T13:44:34Z</time>
</trkpt>
<trkpt lat="45.40810744743794" lon="4.677515616640449">
<ele>589.46</ele>
<time>2013-08-17T13:45:05Z</time>
</trkpt>
<trkpt lat="45.40827076882124" lon="4.6776476316154">
<ele>580.30</ele>
<time>2013-08-17T13:45:43Z</time>
</trkpt>
<trkpt lat="45.40845357812941" lon="4.67756406404078">
<ele>578.06</ele>
<time>2013-08-17T13:45:52Z</time>
</trkpt>
<trkpt lat="45.40868022479117" lon="4.677522908896208">
<ele>575.72</ele>
<time>2013-08-17T13:45:58Z</time>
</trkpt>
<trkpt lat="45.408884030766785" lon="4.67749466188252">
<ele>572.13</ele>
<time>2013-08-17T13:46:02Z</time>
</trkpt>
<trkpt lat="45.40908825583756" lon="4.677480747923255">
<ele>570.32</ele>
<time>2013-08-17T13:46:07Z</time>
</trkpt>
<trkpt lat="45.40926746092737" lon="4.677451997995377">
<ele>568.50</ele>
<time>2013-08-17T13:46:10Z</time>
</trkpt>
<trkpt lat="45.409462549723685" lon="4.6773922350257635">
<ele>565.90</ele>
<time>2013-08-17T13:46:16Z</time>
</trkpt>
<trkpt lat="45.4096481250599" lon="4.67732316814363">
<ele>563.94</ele>
<time>2013-08-17T13:46:20Z</time>
</trkpt>
<trkpt lat="45.40982984472066" lon="4.677296848967671">
<ele>559.33</ele>
<time>2013-08-17T13:46:25Z</time>
</trkpt>
<trkpt lat="45.409982982091606" lon="4.6774323005229235">
<ele>549.68</ele>
<time>2013-08-17T13:47:00Z</time>
</trkpt>
<trkpt lat="45.40996919386089" lon="4.67772776260972">
<ele>547.39</ele>
<time>2013-08-17T13:47:05Z</time>
</trkpt>
<trkpt lat="45.40996391326189" lon="4.678080976009369">
<ele>545.62</ele>
<time>2013-08-17T13:47:08Z</time>
</trkpt>
<trkpt lat="45.40992837399244" lon="4.678355483338237">
<ele>544.52</ele>
<time>2013-08-17T13:47:10Z</time>
</trkpt>
<trkpt lat="45.4098328622058" lon="4.678693693131208">
<ele>543.13</ele>
<time>2013-08-17T13:47:12Z</time>
</trkpt>
<trkpt lat="45.409747450612485" lon="4.678997956216335">
<ele>541.40</ele>
<time>2013-08-17T13:47:14Z</time>
</trkpt>
<trkpt lat="45.409706379286945" lon="4.679262489080429">
<ele>539.79</ele>
<time>2013-08-17T13:47:16Z</time>
</trkpt>
<trkpt lat="45.409706169739366" lon="4.679609751328826">
<ele>537.61</ele>
<time>2013-08-17T13:47:19Z</time>
</trkpt>
<trkpt lat="45.409727627411485" lon="4.679916361346841">
<ele>535.36</ele>
<time>2013-08-17T13:47:23Z</time>
</trkpt>
<trkpt lat="45.40979170706123" lon="4.6804112289100885">
<ele>532.07</ele>
<time>2013-08-17T13:47:31Z</time>
</trkpt>
<trkpt lat="45.409884955734015" lon="4.680637288838625">
<ele>524.61</ele>
<time>2013-08-17T13:47:36Z</time>
</trkpt>
<trkpt lat="45.41009567677975" lon="4.6805958822369576">
<ele>519.50</ele>
<time>2013-08-17T13:47:42Z</time>
</trkpt>
<trkpt lat="45.41027006227523" lon="4.680522121489048">
<ele>516.83</ele>
<time>2013-08-17T13:47:47Z</time>
</trkpt>
<trkpt lat="45.410471269860864" lon="4.680438218638301">
<ele>514.85</ele>
<time>2013-08-17T13:47:53Z</time>
</trkpt>
<trkpt lat="45.410600057803094" lon="4.68062287196517">
<ele>511.71</ele>
<time>2013-08-17T13:48:08Z</time>
</trkpt>
<trkpt lat="45.410659736953676" lon="4.680904755368829">
<ele>509.64</ele>
<time>2013-08-17T13:48:14Z</time>
</trkpt>
<trkpt lat="45.41081224568188" lon="4.681047163903713">
<ele>508.26</ele>
<time>2013-08-17T13:48:17Z</time>
</trkpt>
<trkpt lat="45.41100092232227" lon="4.681185465306044">
<ele>506.20</ele>
<time>2013-08-17T13:48:21Z</time>
</trkpt>
<trkpt lat="45.41118628811091" lon="4.681329634040594">
<ele>504.80</ele>
<time>2013-08-17T13:48:25Z</time>
</trkpt>
<trkpt lat="45.41138665750623" lon="4.6814231760799885">
<ele>504.01</ele>
<time>2013-08-17T13:48:29Z</time>
</trkpt>
<trkpt lat="45.4115488473326" lon="4.681554352864623">
<ele>503.80</ele>
<time>2013-08-17T13:48:32Z</time>
</trkpt>
<trkpt lat="45.4117047926411" lon="4.681687792763114">
<ele>503.88</ele>
<time>2013-08-17T13:48:35Z</time>
</trkpt>
<trkpt lat="45.41186694055796" lon="4.681883174926043">
<ele>504.10</ele>
<time>2013-08-17T13:48:39Z</time>
</trkpt>
<trkpt lat="45.41207581758499" lon="4.681911338120699">
<ele>503.68</ele>
<time>2013-08-17T13:48:43Z</time>
</trkpt>
<trkpt lat="45.41226491332054" lon="4.681943021714687">
<ele>502.26</ele>
<time>2013-08-17T13:48:47Z</time>
</trkpt>
<trkpt lat="45.41238066740334" lon="4.682147540152073">
<ele>500.62</ele>
<time>2013-08-17T13:48:52Z</time>
</trkpt>
<trkpt lat="45.412382343783975" lon="4.681878900155425">
<ele>496.86</ele>
<time>2013-08-17T13:49:06Z</time>
</trkpt>
<trkpt lat="45.4125193040818" lon="4.681667760014534">
<ele>496.62</ele>
<time>2013-08-17T13:49:10Z</time>
</trkpt>
<trkpt lat="45.41260174009949" lon="4.681396437808871">
<ele>496.56</ele>
<time>2013-08-17T13:49:14Z</time>
</trkpt>
<trkpt lat="45.41266762185842" lon="4.681118493899703">
<ele>496.37</ele>
<time>2013-08-17T13:49:18Z</time>
</trkpt>
<trkpt lat="45.412696078419685" lon="4.680802412331104">
<ele>495.90</ele>
<time>2013-08-17T13:49:22Z</time>
</trkpt>
<trkpt lat="45.41273174341768" lon="4.6805446688085794">
<ele>495.38</ele>
<time>2013-08-17T13:49:25Z</time>
</trkpt>
<trkpt lat="45.41279900819063" lon="4.680295726284385">
<ele>494.83</ele>
<time>2013-08-17T13:49:28Z</time>
</trkpt>
<trkpt lat="45.41283836122602" lon="4.680034043267369">
<ele>494.39</ele>
<time>2013-08-17T13:49:31Z</time>
</trkpt>
<trkpt lat="45.41284192353487" lon="4.679761128500104">
<ele>494.00</ele>
<time>2013-08-17T13:49:34Z</time>
</trkpt>
<trkpt lat="45.41289359796792" lon="4.679513024166226">
<ele>493.77</ele>
<time>2013-08-17T13:49:37Z</time>
</trkpt>
<trkpt lat="45.41298156604171" lon="4.679234744980931">
<ele>493.91</ele>
<time>2013-08-17T13:49:41Z</time>
</trkpt>
<trkpt lat="45.41311035398394" lon="4.679004745557904">
<ele>493.71</ele>
<time>2013-08-17T13:49:44Z</time>
</trkpt>
<trkpt lat="45.41328172199428" lon="4.6787746623158455">
<ele>492.65</ele>
<time>2013-08-17T13:49:47Z</time>
</trkpt>
<trkpt lat="45.413474002853036" lon="4.678575592115521">
<ele>491.37</ele>
<time>2013-08-17T13:49:51Z</time>
</trkpt>
<trkpt lat="45.41330225765705" lon="4.678671145811677">
<ele>484.39</ele>
<time>2013-08-17T13:50:51Z</time>
</trkpt>
<trkpt lat="45.413156119175255" lon="4.678868371993303">
<ele>483.38</ele>
<time>2013-08-17T13:50:58Z</time>
</trkpt>
<trkpt lat="45.41304966900498" lon="4.679084038361907">
<ele>483.45</ele>
<time>2013-08-17T13:51:04Z</time>
</trkpt>
<trkpt lat="45.41294795460999" lon="4.679307751357555">
<ele>482.83</ele>
<time>2013-08-17T13:51:09Z</time>
</trkpt>
<trkpt lat="45.4128946037963" lon="4.679572954773903">
<ele>482.64</ele>
<time>2013-08-17T13:51:16Z</time>
</trkpt>
<trkpt lat="45.41286723688245" lon="4.6798646450042725">
<ele>482.63</ele>
<time>2013-08-17T13:51:22Z</time>
</trkpt>
<trkpt lat="45.41283576283604" lon="4.680165890604258">
<ele>482.84</ele>
<time>2013-08-17T13:51:28Z</time>
</trkpt>
<trkpt lat="45.412816065363586" lon="4.680430591106415">
<ele>482.66</ele>
<time>2013-08-17T13:51:35Z</time>
</trkpt>
<trkpt lat="45.41278505232185" lon="4.68068934045732">
<ele>481.88</ele>
<time>2013-08-17T13:51:41Z</time>
</trkpt>
<trkpt lat="45.41277423966676" lon="4.6809519454836845">
<ele>481.09</ele>
<time>2013-08-17T13:51:47Z</time>
</trkpt>
<trkpt lat="45.412734844721854" lon="4.681242546066642">
<ele>480.53</ele>
<time>2013-08-17T13:51:54Z</time>
</trkpt>
<trkpt lat="45.41261582169682" lon="4.681546054780483">
<ele>480.65</ele>
<time>2013-08-17T13:52:00Z</time>
</trkpt>
<trkpt lat="45.412490596063435" lon="4.681756105273962">
<ele>480.77</ele>
<time>2013-08-17T13:52:03Z</time>
</trkpt>
<trkpt lat="45.412375973537564" lon="4.682013345882297">
<ele>482.09</ele>
<time>2013-08-17T13:52:09Z</time>
</trkpt>
<trkpt lat="45.412385570816696" lon="4.6822872664779425">
<ele>485.66</ele>
<time>2013-08-17T13:52:16Z</time>
</trkpt>
<trkpt lat="45.41252290830016" lon="4.6825172659009695">
<ele>486.21</ele>
<time>2013-08-17T13:52:22Z</time>
</trkpt>
<trkpt lat="45.41272164322436" lon="4.682637797668576">
<ele>486.24</ele>
<time>2013-08-17T13:52:27Z</time>
</trkpt>
<trkpt lat="45.4129006806761" lon="4.682766292244196">
<ele>486.20</ele>
<time>2013-08-17T13:52:31Z</time>
</trkpt>
<trkpt lat="45.41303868871182" lon="4.682934014126658">
<ele>486.09</ele>
<time>2013-08-17T13:52:35Z</time>
</trkpt>
<trkpt lat="45.41293785441667" lon="4.683174239471555">
<ele>486.22</ele>
<time>2013-08-17T13:52:41Z</time>
</trkpt>
<trkpt lat="45.41290801484138" lon="4.683451429009438">
<ele>487.21</ele>
<time>2013-08-17T13:52:47Z</time>
</trkpt>
<trkpt lat="45.412831697613" lon="4.6837094239890575">
<ele>489.70</ele>
<time>2013-08-17T13:53:12Z</time>
</trkpt>
<trkpt lat="45.412951139733195" lon="4.684285009279847">
<ele>490.24</ele>
<time>2013-08-17T13:53:29Z</time>
</trkpt>
<trkpt lat="45.4130579251796" lon="4.684544764459133">
<ele>486.44</ele>
<time>2013-08-17T13:53:37Z</time>
</trkpt>
<trkpt lat="45.41310511529446" lon="4.6847970597445965">
<ele>486.37</ele>
<time>2013-08-17T13:53:41Z</time>
</trkpt>
<trkpt lat="45.413099960424006" lon="4.685068633407354">
<ele>486.61</ele>
<time>2013-08-17T13:53:44Z</time>
</trkpt>
<trkpt lat="45.4130373056978" lon="4.685338782146573">
<ele>486.31</ele>
<time>2013-08-17T13:53:48Z</time>
</trkpt>
<trkpt lat="45.41283492464572" lon="4.685642793774605">
<ele>484.41</ele>
<time>2013-08-17T13:53:56Z</time>
</trkpt>
<trkpt lat="45.41270441841334" lon="4.685945967212319">
<ele>483.24</ele>
<time>2013-08-17T13:54:05Z</time>
</trkpt>
<trkpt lat="45.41269511450082" lon="4.686213517561555">
<ele>482.35</ele>
<time>2013-08-17T13:54:12Z</time>
</trkpt>
<trkpt lat="45.41270207148045" lon="4.686477379873395">
<ele>482.59</ele>
<time>2013-08-17T13:54:20Z</time>
</trkpt>
<trkpt lat="45.412806551903486" lon="4.686693465337157">
<ele>482.86</ele>
<time>2013-08-17T13:54:27Z</time>
</trkpt>
<trkpt lat="45.41293416637927" lon="4.686889601871371">
<ele>482.54</ele>
<time>2013-08-17T13:54:35Z</time>
</trkpt>
<trkpt lat="45.413001640699804" lon="4.687134185805917">
<ele>482.82</ele>
<time>2013-08-17T13:54:42Z</time>
</trkpt>
<trkpt lat="45.41329266037792" lon="4.687378266826272">
<ele>486.67</ele>
<time>2013-08-17T13:56:52Z</time>
</trkpt>
<trkpt lat="45.41340657044202" lon="4.687582449987531">
<ele>487.34</ele>
<time>2013-08-17T13:57:10Z</time>
</trkpt>
<trkpt lat="45.413383059203625" lon="4.687850419431925">
<ele>485.70</ele>
<time>2013-08-17T13:57:16Z</time>
</trkpt>
<trkpt lat="45.413263658992946" lon="4.688064241781831">
<ele>482.92</ele>
<time>2013-08-17T13:57:21Z</time>
</trkpt>
<trkpt lat="45.41324601508677" lon="4.688324416056275">
<ele>480.32</ele>
<time>2013-08-17T13:57:28Z</time>
</trkpt>
<trkpt lat="45.41319828014821" lon="4.688603784888983">
<ele>477.33</ele>
<time>2013-08-17T13:57:38Z</time>
</trkpt>
<trkpt lat="45.4130354616791" lon="4.688725909218192">
<ele>474.48</ele>
<time>2013-08-17T13:57:44Z</time>
</trkpt>
<trkpt lat="45.41286832652986" lon="4.688844848424196">
<ele>473.55</ele>
<time>2013-08-17T13:57:50Z</time>
</trkpt>
<trkpt lat="45.41269834153354" lon="4.688934786245227">
<ele>473.78</ele>
<time>2013-08-17T13:57:57Z</time>
</trkpt>
<trkpt lat="45.412505054846406" lon="4.689066465944052">
<ele>473.38</ele>
<time>2013-08-17T13:58:04Z</time>
</trkpt>
<trkpt lat="45.4123255982995" lon="4.689104184508324">
<ele>473.82</ele>
<time>2013-08-17T13:58:11Z</time>
</trkpt>
<trkpt lat="45.4121305514127" lon="4.689079709351063">
<ele>474.13</ele>
<time>2013-08-17T13:58:16Z</time>
</trkpt>
<trkpt lat="45.41193370241672" lon="4.689063113182783">
<ele>474.25</ele>
<time>2013-08-17T13:58:20Z</time>
</trkpt>
<trkpt lat="45.41174456477165" lon="4.689052803441882">
<ele>474.28</ele>
<time>2013-08-17T13:58:23Z</time>
</trkpt>
<trkpt lat="45.41147626005113" lon="4.689040733501315">
<ele>474.55</ele>
<time>2013-08-17T13:58:26Z</time>
</trkpt>
<trkpt lat="45.41128293145448" lon="4.689019024372101">
<ele>475.04</ele>
<time>2013-08-17T13:58:28Z</time>
</trkpt>
<trkpt lat="45.41102309245616" lon="4.688989687711">
<ele>475.61</ele>
<time>2013-08-17T13:58:31Z</time>
</trkpt>
<trkpt lat="45.41079661343247" lon="4.688977869227529">
<ele>476.23</ele>
<time>2013-08-17T13:58:34Z</time>
</trkpt>
<trkpt lat="45.410602991469204" lon="4.689018437638879">
<ele>476.43</ele>
<time>2013-08-17T13:58:37Z</time>
</trkpt>
<trkpt lat="45.41042223572731" lon="4.6890344470739365">
<ele>476.21</ele>
<time>2013-08-17T13:58:40Z</time>
</trkpt>
<trkpt lat="45.41021587327123" lon="4.689050875604153">
<ele>475.55</ele>
<time>2013-08-17T13:58:44Z</time>
</trkpt>
<trkpt lat="45.41017635259777" lon="4.689324293285608">
<ele>473.12</ele>
<time>2013-08-17T13:58:52Z</time>
</trkpt>
<trkpt lat="45.410225302912295" lon="4.689619168639183">
<ele>471.28</ele>
<time>2013-08-17T13:58:57Z</time>
</trkpt>
<trkpt lat="45.41024520993233" lon="4.689891915768385">
<ele>470.23</ele>
<time>2013-08-17T13:59:01Z</time>
</trkpt>
<trkpt lat="45.41023334953934" lon="4.690214283764362">
<ele>469.20</ele>
<time>2013-08-17T13:59:05Z</time>
</trkpt>
<trkpt lat="45.41021293960512" lon="4.690515613183379">
<ele>468.21</ele>
<time>2013-08-17T13:59:08Z</time>
</trkpt>
<trkpt lat="45.410191817209125" lon="4.690845105797052">
<ele>466.95</ele>
<time>2013-08-17T13:59:11Z</time>
</trkpt>
<trkpt lat="45.41014278307557" lon="4.691142747178674">
<ele>465.62</ele>
<time>2013-08-17T13:59:14Z</time>
</trkpt>
<trkpt lat="45.41003750637174" lon="4.691362855955958">
<ele>464.51</ele>
<time>2013-08-17T13:59:17Z</time>
</trkpt>
<trkpt lat="45.409925314597785" lon="4.691576259210706">
<ele>463.02</ele>
<time>2013-08-17T13:59:22Z</time>
</trkpt>
<trkpt lat="45.409760694019496" lon="4.691790584474802">
<ele>461.67</ele>
<time>2013-08-17T13:59:27Z</time>
</trkpt>
<trkpt lat="45.40960089303553" lon="4.691997366026044">
<ele>460.86</ele>
<time>2013-08-17T13:59:31Z</time>
</trkpt>
<trkpt lat="45.40941012091935" lon="4.692156370729208">
<ele>460.80</ele>
<time>2013-08-17T13:59:35Z</time>
</trkpt>
<trkpt lat="45.409199190326035" lon="4.692207584157586">
<ele>461.04</ele>
<time>2013-08-17T13:59:39Z</time>
</trkpt>
<trkpt lat="45.40896378457546" lon="4.692283608019352">
<ele>461.57</ele>
<time>2013-08-17T13:59:43Z</time>
</trkpt>
<trkpt lat="45.408752895891666" lon="4.6923441253602505">
<ele>462.49</ele>
<time>2013-08-17T13:59:47Z</time>
</trkpt>
<trkpt lat="45.40861685760319" lon="4.6925379149615765">
<ele>464.20</ele>
<time>2013-08-17T13:59:54Z</time>
</trkpt>
<trkpt lat="45.40856899693608" lon="4.692808482795954">
<ele>465.47</ele>
<time>2013-08-17T14:00:01Z</time>
</trkpt>
<trkpt lat="45.40847587399185" lon="4.69303697347641">
<ele>465.87</ele>
<time>2013-08-17T14:00:07Z</time>
</trkpt>
<trkpt lat="45.408350438810885" lon="4.693232774734497">
<ele>466.07</ele>
<time>2013-08-17T14:00:10Z</time>
</trkpt>
<trkpt lat="45.40824092924595" lon="4.693493116647005">
<ele>466.59</ele>
<time>2013-08-17T14:00:14Z</time>
</trkpt>
<trkpt lat="45.408157822676" lon="4.693763852119446">
<ele>466.82</ele>
<time>2013-08-17T14:00:17Z</time>
</trkpt>
<trkpt lat="45.40806645993143" lon="4.694052189588547">
<ele>466.46</ele>
<time>2013-08-17T14:00:21Z</time>
</trkpt>
<trkpt lat="45.40797685738653" lon="4.694281183183193">
<ele>465.42</ele>
<time>2013-08-17T14:00:25Z</time>
</trkpt>
<trkpt lat="45.407888973131776" lon="4.694549152627587">
<ele>463.89</ele>
<time>2013-08-17T14:00:30Z</time>
</trkpt>
<trkpt lat="45.40779978968203" lon="4.694791724905372">
<ele>462.36</ele>
<time>2013-08-17T14:00:34Z</time>
</trkpt>
<trkpt lat="45.40774706751108" lon="4.695038320496678">
<ele>461.19</ele>
<time>2013-08-17T14:00:40Z</time>
</trkpt>
<trkpt lat="45.407664673402905" lon="4.695304529741406">
<ele>460.25</ele>
<time>2013-08-17T14:01:27Z</time>
</trkpt>
<trkpt lat="45.40755072142929" lon="4.695548443123698">
<ele>469.92</ele>
<time>2013-08-17T14:01:35Z</time>
</trkpt>
<trkpt lat="45.40744678582996" lon="4.695794535800815">
<ele>472.11</ele>
<time>2013-08-17T14:01:41Z</time>
</trkpt>
<trkpt lat="45.407341718673706" lon="4.696030570194125">
<ele>471.31</ele>
<time>2013-08-17T14:01:46Z</time>
</trkpt>
<trkpt lat="45.40726942475885" lon="4.696278339251876">
<ele>456.86</ele>
<time>2013-08-17T14:01:53Z</time>
</trkpt>
<trkpt lat="45.407162555493414" lon="4.696503560990095">
<ele>444.16</ele>
<time>2013-08-17T14:01:59Z</time>
</trkpt>
<trkpt lat="45.40703251026571" lon="4.696757113561034">
<ele>435.59</ele>
<time>2013-08-17T14:02:05Z</time>
</trkpt>
<trkpt lat="45.40692283306271" lon="4.696982502937317">
<ele>431.83</ele>
<time>2013-08-17T14:02:10Z</time>
</trkpt>
<trkpt lat="45.4068189393729" lon="4.6972082275897264">
<ele>430.31</ele>
<time>2013-08-17T14:02:16Z</time>
</trkpt>
<trkpt lat="45.406691785901785" lon="4.697408890351653">
<ele>430.14</ele>
<time>2013-08-17T14:02:22Z</time>
</trkpt>
<trkpt lat="45.406571882776916" lon="4.697631513699889">
<ele>431.68</ele>
<time>2013-08-17T14:02:30Z</time>
</trkpt>
<trkpt lat="45.40645336266607" lon="4.697836535051465">
<ele>432.85</ele>
<time>2013-08-17T14:02:37Z</time>
</trkpt>
<trkpt lat="45.406326754018664" lon="4.698043232783675">
<ele>432.92</ele>
<time>2013-08-17T14:02:44Z</time>
</trkpt>
<trkpt lat="45.406122277490795" lon="4.698028480634093">
<ele>435.94</ele>
<time>2013-08-17T14:03:22Z</time>
</trkpt>
<trkpt lat="45.40605283342302" lon="4.6977730840444565">
<ele>436.23</ele>
<time>2013-08-17T14:03:29Z</time>
</trkpt>
<trkpt lat="45.406070058234036" lon="4.6974818129092455">
<ele>435.44</ele>
<time>2013-08-17T14:03:34Z</time>
</trkpt>
<trkpt lat="45.40608619339764" lon="4.697223482653499">
<ele>435.17</ele>
<time>2013-08-17T14:03:38Z</time>
</trkpt>
<trkpt lat="45.40605916175991" lon="4.6969222370535135">
<ele>435.60</ele>
<time>2013-08-17T14:03:43Z</time>
</trkpt>
<trkpt lat="45.40604746900499" lon="4.696627864614129">
<ele>435.30</ele>
<time>2013-08-17T14:03:48Z</time>
</trkpt>
<trkpt lat="45.40605999995023" lon="4.696341287344694">
<ele>433.96</ele>
<time>2013-08-17T14:03:53Z</time>
</trkpt>
<trkpt lat="45.40607722476125" lon="4.696071809157729">
<ele>433.89</ele>
<time>2013-08-17T14:03:57Z</time>
</trkpt>
<trkpt lat="45.406068339943886" lon="4.695790261030197">
<ele>433.59</ele>
<time>2013-08-17T14:04:01Z</time>
</trkpt>
<trkpt lat="45.406088288873434" lon="4.695502175018191">
<ele>433.47</ele>
<time>2013-08-17T14:04:05Z</time>
</trkpt>
<trkpt lat="45.40612688753754" lon="4.695225404575467">
<ele>433.70</ele>
<time>2013-08-17T14:04:09Z</time>
</trkpt>
<trkpt lat="45.40616267826408" lon="4.694956429302692">
<ele>434.29</ele>
<time>2013-08-17T14:04:13Z</time>
</trkpt>
<trkpt lat="45.406192895025015" lon="4.694657698273659">
<ele>435.10</ele>
<time>2013-08-17T14:04:18Z</time>
</trkpt>
<trkpt lat="45.40627143345773" lon="4.694384951144457">
<ele>434.76</ele>
<time>2013-08-17T14:04:23Z</time>
</trkpt>
<trkpt lat="45.406367615796626" lon="4.6941236872226">
<ele>435.18</ele>
<time>2013-08-17T14:04:27Z</time>
</trkpt>
<trkpt lat="45.40646459441632" lon="4.693858148530126">
<ele>435.22</ele>
<time>2013-08-17T14:04:32Z</time>
</trkpt>
<trkpt lat="45.40641677565873" lon="4.69361113384366">
<ele>435.29</ele>
<time>2013-08-17T14:04:40Z</time>
</trkpt>
<trkpt lat="45.406353450380266" lon="4.693356323987246">
<ele>435.16</ele>
<time>2013-08-17T14:04:45Z</time>
</trkpt>
<trkpt lat="45.40628207847476" lon="4.69311760738492">
<ele>435.30</ele>
<time>2013-08-17T14:04:50Z</time>
</trkpt>
<trkpt lat="45.40614298079163" lon="4.692903030663729">
<ele>435.99</ele>
<time>2013-08-17T14:04:56Z</time>
</trkpt>
<trkpt lat="45.40594206657261" lon="4.692874448373914">
<ele>436.82</ele>
<time>2013-08-17T14:05:02Z</time>
</trkpt>
<trkpt lat="45.40575372520834" lon="4.692831113934517">
<ele>437.18</ele>
<time>2013-08-17T14:05:08Z</time>
</trkpt>
<trkpt lat="45.40556789841503" lon="4.692762633785605">
<ele>437.56</ele>
<time>2013-08-17T14:05:15Z</time>
</trkpt>
<trkpt lat="45.40537553373724" lon="4.692668421193957">
<ele>437.27</ele>
<time>2013-08-17T14:05:21Z</time>
</trkpt>
<trkpt lat="45.405206345021725" lon="4.692560797557235">
<ele>436.22</ele>
<time>2013-08-17T14:05:27Z</time>
</trkpt>
<trkpt lat="45.40502772666514" lon="4.692502962425351">
<ele>434.99</ele>
<time>2013-08-17T14:05:34Z</time>
</trkpt>
<trkpt lat="45.40485258679837" lon="4.6926265116781">
<ele>434.44</ele>
<time>2013-08-17T14:05:40Z</time>
</trkpt>
<trkpt lat="45.404681763611734" lon="4.692825078964233">
<ele>434.10</ele>
<time>2013-08-17T14:05:44Z</time>
</trkpt>
<trkpt lat="45.40463637560606" lon="4.693132359534502">
<ele>433.78</ele>
<time>2013-08-17T14:05:48Z</time>
</trkpt>
<trkpt lat="45.40463201701641" lon="4.693427234888077">
<ele>433.16</ele>
<time>2013-08-17T14:05:52Z</time>
</trkpt>
<trkpt lat="45.40453357156366" lon="4.693652121350169">
<ele>432.55</ele>
<time>2013-08-17T14:05:55Z</time>
</trkpt>
<trkpt lat="45.404424774460495" lon="4.693890670314431">
<ele>432.05</ele>
<time>2013-08-17T14:05:58Z</time>
</trkpt>
<trkpt lat="45.404319539666176" lon="4.694135254248977">
<ele>431.61</ele>
<time>2013-08-17T14:06:01Z</time>
</trkpt>
<trkpt lat="45.40416833013296" lon="4.694334743544459">
<ele>430.38</ele>
<time>2013-08-17T14:06:06Z</time>
</trkpt>
<trkpt lat="45.403948849998415" lon="4.694398110732436">
<ele>429.61</ele>
<time>2013-08-17T14:06:13Z</time>
</trkpt>
<trkpt lat="45.403769267722964" lon="4.694465333595872">
<ele>429.32</ele>
<time>2013-08-17T14:06:17Z</time>
</trkpt>
<trkpt lat="45.40356403682381" lon="4.694510428234935">
<ele>428.73</ele>
<time>2013-08-17T14:06:22Z</time>
</trkpt>
<trkpt lat="45.40347405709326" lon="4.69473690725863">
<ele>428.52</ele>
<time>2013-08-17T14:06:27Z</time>
</trkpt>
<trkpt lat="45.40345771238208" lon="4.695066986605525">
<ele>428.04</ele>
<time>2013-08-17T14:06:31Z</time>
</trkpt>
<trkpt lat="45.40340268518776" lon="4.695373177528381">
<ele>427.55</ele>
<time>2013-08-17T14:06:34Z</time>
</trkpt>
<trkpt lat="45.403369911946356" lon="4.6956732496619225">
<ele>427.51</ele>
<time>2013-08-17T14:06:37Z</time>
</trkpt>
<trkpt lat="45.403336929157376" lon="4.695940632373095">
<ele>427.08</ele>
<time>2013-08-17T14:06:41Z</time>
</trkpt>
<trkpt lat="45.40323068853468" lon="4.696208769455552">
<ele>426.46</ele>
<time>2013-08-17T14:06:46Z</time>
</trkpt>
<trkpt lat="45.40311702992767" lon="4.696459472179413">
<ele>425.74</ele>
<time>2013-08-17T14:06:50Z</time>
</trkpt>
<trkpt lat="45.40303769521415" lon="4.696709923446178">
<ele>424.77</ele>
<time>2013-08-17T14:06:56Z</time>
</trkpt>
<trkpt lat="45.40311179123819" lon="4.696954842656851">
<ele>414.34</ele>
<time>2013-08-17T14:07:37Z</time>
</trkpt>
<trkpt lat="45.40319623891264" lon="4.697234630584717">
<ele>413.59</ele>
<time>2013-08-17T14:07:43Z</time>
</trkpt>
<trkpt lat="45.40326383896172" lon="4.697517268359661">
<ele>413.03</ele>
<time>2013-08-17T14:07:49Z</time>
</trkpt>
<trkpt lat="45.40327930357307" lon="4.697846006602049">
<ele>411.57</ele>
<time>2013-08-17T14:07:54Z</time>
</trkpt>
<trkpt lat="45.40333013981581" lon="4.698170637711883">
<ele>410.69</ele>
<time>2013-08-17T14:07:58Z</time>
</trkpt>
<trkpt lat="45.403378629125655" lon="4.698487222194672">
<ele>409.75</ele>
<time>2013-08-17T14:08:02Z</time>
</trkpt>
<trkpt lat="45.40343260858208" lon="4.6987582091242075">
<ele>408.68</ele>
<time>2013-08-17T14:08:06Z</time>
</trkpt>
<trkpt lat="45.4034860432148" lon="4.699069680646062">
<ele>407.52</ele>
<time>2013-08-17T14:08:10Z</time>
</trkpt>
<trkpt lat="45.40352954529226" lon="4.699392048642039">
<ele>406.70</ele>
<time>2013-08-17T14:08:14Z</time>
</trkpt>
<trkpt lat="45.40356961078942" lon="4.699652390554547">
<ele>405.97</ele>
<time>2013-08-17T14:08:17Z</time>
</trkpt>
<trkpt lat="45.403621243312955" lon="4.699932178482413">
<ele>405.40</ele>
<time>2013-08-17T14:08:20Z</time>
</trkpt>
<trkpt lat="45.40371248032898" lon="4.700182881206274">
<ele>404.85</ele>
<time>2013-08-17T14:08:23Z</time>
</trkpt>
<trkpt lat="45.40381566155702" lon="4.7004336677491665">
<ele>404.28</ele>
<time>2013-08-17T14:08:26Z</time>
</trkpt>
<trkpt lat="45.403933050110936" lon="4.700688477605581">
<ele>403.73</ele>
<time>2013-08-17T14:08:29Z</time>
</trkpt>
<trkpt lat="45.404040212742984" lon="4.700974719598889">
<ele>402.97</ele>
<time>2013-08-17T14:08:32Z</time>
</trkpt>
<trkpt lat="45.40413346141577" lon="4.7012644819915295">
<ele>402.03</ele>
<time>2013-08-17T14:08:35Z</time>
</trkpt>
<trkpt lat="45.40422088466585" lon="4.701568577438593">
<ele>401.40</ele>
<time>2013-08-17T14:08:38Z</time>
</trkpt>
<trkpt lat="45.40428567677736" lon="4.701863871887326">
<ele>400.76</ele>
<time>2013-08-17T14:08:41Z</time>
</trkpt>
<trkpt lat="45.40433316025883" lon="4.702130751684308">
<ele>400.35</ele>
<time>2013-08-17T14:08:44Z</time>
</trkpt>
<trkpt lat="45.40436383802444" lon="4.702399056404829">
<ele>398.84</ele>
<time>2013-08-17T14:08:52Z</time>
</trkpt>
<trkpt lat="45.40445800870657" lon="4.702662667259574">
<ele>398.25</ele>
<time>2013-08-17T14:08:59Z</time>
</trkpt>
<trkpt lat="45.40458629373461" lon="4.702943544834852">
<ele>398.59</ele>
<time>2013-08-17T14:09:03Z</time>
</trkpt>
<trkpt lat="45.404702886007726" lon="4.703173208981752">
<ele>398.83</ele>
<time>2013-08-17T14:09:06Z</time>
</trkpt>
<trkpt lat="45.404873164370656" lon="4.703379655256867">
<ele>398.24</ele>
<time>2013-08-17T14:09:10Z</time>
</trkpt>
<trkpt lat="45.40499239694327" lon="4.703669585287571">
<ele>397.39</ele>
<time>2013-08-17T14:09:14Z</time>
</trkpt>
<trkpt lat="45.40509541053325" lon="4.703919030725956">
<ele>396.81</ele>
<time>2013-08-17T14:09:17Z</time>
</trkpt>
<trkpt lat="45.40519607719034" lon="4.704171074554324">
<ele>395.92</ele>
<time>2013-08-17T14:09:20Z</time>
</trkpt>
<trkpt lat="45.405314094386995" lon="4.704457903280854">
<ele>394.40</ele>
<time>2013-08-17T14:09:24Z</time>
</trkpt>
<trkpt lat="45.405437224544585" lon="4.704703660681844">
<ele>393.17</ele>
<time>2013-08-17T14:09:28Z</time>
</trkpt>
<trkpt lat="45.405523935332894" lon="4.704959141090512">
<ele>391.31</ele>
<time>2013-08-17T14:09:32Z</time>
</trkpt>
<trkpt lat="45.40557250846177" lon="4.7052347380667925">
<ele>388.82</ele>
<time>2013-08-17T14:09:36Z</time>
</trkpt>
<trkpt lat="45.40559103246778" lon="4.705514274537563">
<ele>386.42</ele>
<time>2013-08-17T14:09:39Z</time>
</trkpt>
<trkpt lat="45.405604150146246" lon="4.705811413004994">
<ele>385.14</ele>
<time>2013-08-17T14:09:42Z</time>
</trkpt>
<trkpt lat="45.405613579787314" lon="4.7061108984053135">
<ele>384.19</ele>
<time>2013-08-17T14:09:45Z</time>
</trkpt>
<trkpt lat="45.4056505439803" lon="4.706390434876084">
<ele>383.12</ele>
<time>2013-08-17T14:09:48Z</time>
</trkpt>
<trkpt lat="45.40566470939666" lon="4.706678353250027">
<ele>381.94</ele>
<time>2013-08-17T14:09:51Z</time>
</trkpt>
<trkpt lat="45.40567464195192" lon="4.706980688497424">
<ele>381.03</ele>
<time>2013-08-17T14:09:54Z</time>
</trkpt>
<trkpt lat="45.405687633901834" lon="4.7072497475892305">
<ele>380.33</ele>
<time>2013-08-17T14:09:57Z</time>
</trkpt>
<trkpt lat="45.40577229112387" lon="4.707549065351486">
<ele>380.07</ele>
<time>2013-08-17T14:10:01Z</time>
</trkpt>
<trkpt lat="45.405863570049405" lon="4.70780286937952">
<ele>380.49</ele>
<time>2013-08-17T14:10:05Z</time>
</trkpt>
<trkpt lat="45.40594617370516" lon="4.7080902848392725">
<ele>380.22</ele>
<time>2013-08-17T14:10:09Z</time>
</trkpt>
<trkpt lat="45.406035860069096" lon="4.7083821427077055">
<ele>380.56</ele>
<time>2013-08-17T14:10:13Z</time>
</trkpt>
<trkpt lat="45.40611372794956" lon="4.708650698885322">
<ele>380.66</ele>
<time>2013-08-17T14:10:17Z</time>
</trkpt>
<trkpt lat="45.406184890307486" lon="4.70888857729733">
<ele>380.73</ele>
<time>2013-08-17T14:10:21Z</time>
</trkpt>
<trkpt lat="45.406227889470756" lon="4.709144560620189">
<ele>380.49</ele>
<time>2013-08-17T14:10:25Z</time>
</trkpt>
<trkpt lat="45.40628488641232" lon="4.709414793178439">
<ele>380.22</ele>
<time>2013-08-17T14:10:30Z</time>
</trkpt>
<trkpt lat="45.40634594857693" lon="4.7096573654562235">
<ele>379.02</ele>
<time>2013-08-17T14:10:34Z</time>
</trkpt>
<trkpt lat="45.40641706902534" lon="4.709936650469899">
<ele>378.33</ele>
<time>2013-08-17T14:10:38Z</time>
</trkpt>
<trkpt lat="45.40651061106473" lon="4.710215767845511">
<ele>378.40</ele>
<time>2013-08-17T14:10:42Z</time>
</trkpt>
<trkpt lat="45.40659074205905" lon="4.71051961183548">
<ele>378.94</ele>
<time>2013-08-17T14:10:46Z</time>
</trkpt>
<trkpt lat="45.40668273344636" lon="4.710796885192394">
<ele>379.28</ele>
<time>2013-08-17T14:10:50Z</time>
</trkpt>
<trkpt lat="45.40675905067474" lon="4.711104668676853">
<ele>379.56</ele>
<time>2013-08-17T14:10:54Z</time>
</trkpt>
<trkpt lat="45.40682862047106" lon="4.711426617577672">
<ele>379.82</ele>
<time>2013-08-17T14:10:58Z</time>
</trkpt>
<trkpt lat="45.4068895149976" lon="4.711680756881833">
<ele>379.84</ele>
<time>2013-08-17T14:11:01Z</time>
</trkpt>
<trkpt lat="45.40697400458157" lon="4.711931208148599">
<ele>379.91</ele>
<time>2013-08-17T14:11:04Z</time>
</trkpt>
<trkpt lat="45.40706695988774" lon="4.712161375209689">
<ele>379.92</ele>
<time>2013-08-17T14:11:07Z</time>
</trkpt>
<trkpt lat="45.407167500816286" lon="4.712448371574283">
<ele>379.83</ele>
<time>2013-08-17T14:11:11Z</time>
</trkpt>
<trkpt lat="45.407267161644995" lon="4.712676024064422">
<ele>379.57</ele>
<time>2013-08-17T14:11:16Z</time>
</trkpt>
<trkpt lat="45.40728229098022" lon="4.712947513908148">
<ele>378.63</ele>
<time>2013-08-17T14:11:24Z</time>
</trkpt>
<trkpt lat="45.40726703591645" lon="4.713257560506463">
<ele>377.18</ele>
<time>2013-08-17T14:11:30Z</time>
</trkpt>
<trkpt lat="45.40725676808506" lon="4.713551681488752">
<ele>375.62</ele>
<time>2013-08-17T14:11:35Z</time>
</trkpt>
<trkpt lat="45.40728074032813" lon="4.713820489123464">
<ele>374.45</ele>
<time>2013-08-17T14:11:39Z</time>
</trkpt>
<trkpt lat="45.40732813999057" lon="4.7141041327267885">
<ele>373.39</ele>
<time>2013-08-17T14:11:43Z</time>
</trkpt>
<trkpt lat="45.40735039394349" lon="4.714420046657324">
<ele>372.57</ele>
<time>2013-08-17T14:11:47Z</time>
</trkpt>
<trkpt lat="45.407383418641984" lon="4.714715173467994">
<ele>371.98</ele>
<time>2013-08-17T14:11:51Z</time>
</trkpt>
<trkpt lat="45.40747587103397" lon="4.714957997202873">
<ele>372.61</ele>
<time>2013-08-17T14:12:22Z</time>
</trkpt>
<trkpt lat="45.40748320519924" lon="4.715292686596513">
<ele>372.25</ele>
<time>2013-08-17T14:12:26Z</time>
</trkpt>
<trkpt lat="45.4075095243752" lon="4.715614467859268">
<ele>372.15</ele>
<time>2013-08-17T14:12:30Z</time>
</trkpt>
<trkpt lat="45.40753353852779" lon="4.715897776186466">
<ele>372.06</ele>
<time>2013-08-17T14:12:33Z</time>
</trkpt>
<trkpt lat="45.407552774995565" lon="4.716220647096634">
<ele>371.81</ele>
<time>2013-08-17T14:12:36Z</time>
</trkpt>
<trkpt lat="45.407571592368186" lon="4.716575620695949">
<ele>371.47</ele>
<time>2013-08-17T14:12:39Z</time>
</trkpt>
<trkpt lat="45.407543890178204" lon="4.716941574588418">
<ele>371.09</ele>
<time>2013-08-17T14:12:42Z</time>
</trkpt>
<trkpt lat="45.40749355684966" lon="4.717193199321628">
<ele>370.84</ele>
<time>2013-08-17T14:12:44Z</time>
</trkpt>
<trkpt lat="45.407413970679045" lon="4.717540964484215">
<ele>370.92</ele>
<time>2013-08-17T14:12:47Z</time>
</trkpt>
<trkpt lat="45.40733551606536" lon="4.717866936698556">
<ele>371.04</ele>
<time>2013-08-17T14:12:50Z</time>
</trkpt>
<trkpt lat="45.40727189742029" lon="4.718133145943284">
<ele>370.67</ele>
<time>2013-08-17T14:12:53Z</time>
</trkpt>
<trkpt lat="45.40719402953982" lon="4.7184316255152225">
<ele>369.87</ele>
<time>2013-08-17T14:12:57Z</time>
</trkpt>
<trkpt lat="45.4071202268824" lon="4.718742594122887">
<ele>368.92</ele>
<time>2013-08-17T14:13:01Z</time>
</trkpt>
<trkpt lat="45.40709042921662" lon="4.7190077137202024">
<ele>368.25</ele>
<time>2013-08-17T14:13:04Z</time>
</trkpt>
<trkpt lat="45.40712031070143" lon="4.719311809167266">
<ele>367.86</ele>
<time>2013-08-17T14:13:07Z</time>
</trkpt>
<trkpt lat="45.40715408977121" lon="4.719665357843041">
<ele>367.00</ele>
<time>2013-08-17T14:13:10Z</time>
</trkpt>
<trkpt lat="45.40718183387071" lon="4.719985043630004">
<ele>366.20</ele>
<time>2013-08-17T14:13:13Z</time>
</trkpt>
<trkpt lat="45.407038922421634" lon="4.719809610396624">
<ele>363.03</ele>
<time>2013-08-17T14:13:27Z</time>
</trkpt>
<trkpt lat="45.40682313032448" lon="4.719739202409983">
<ele>362.55</ele>
<time>2013-08-17T14:13:31Z</time>
</trkpt>
<trkpt lat="45.40664329659194" lon="4.719696203246713">
<ele>361.08</ele>
<time>2013-08-17T14:13:39Z</time>
</trkpt>
<trkpt lat="45.40642444510013" lon="4.719722354784608">
<ele>360.34</ele>
<time>2013-08-17T14:13:44Z</time>
</trkpt>
<trkpt lat="45.40622633881867" lon="4.719693269580603">
<ele>359.80</ele>
<time>2013-08-17T14:13:49Z</time>
</trkpt>
<trkpt lat="45.40606058668345" lon="4.719591848552227">
<ele>359.37</ele>
<time>2013-08-17T14:13:53Z</time>
</trkpt>
<trkpt lat="45.40588343515992" lon="4.719325974583626">
<ele>358.37</ele>
<time>2013-08-17T14:13:57Z</time>
</trkpt>
<trkpt lat="45.40574970189482" lon="4.719094047322869">
<ele>357.17</ele>
<time>2013-08-17T14:14:01Z</time>
</trkpt>
<trkpt lat="45.405621249228716" lon="4.718810319900513">
<ele>356.26</ele>
<time>2013-08-17T14:14:05Z</time>
</trkpt>
<trkpt lat="45.40548705495894" lon="4.718598257750273">
<ele>355.42</ele>
<time>2013-08-17T14:14:09Z</time>
</trkpt>
<trkpt lat="45.4053164832294" lon="4.718407401815057">
<ele>354.90</ele>
<time>2013-08-17T14:14:13Z</time>
</trkpt>
<trkpt lat="45.405157562345266" lon="4.718275051563978">
<ele>353.41</ele>
<time>2013-08-17T14:14:17Z</time>
</trkpt>
<trkpt lat="45.404974250122905" lon="4.7181241773068905">
<ele>352.50</ele>
<time>2013-08-17T14:14:21Z</time>
</trkpt>
<trkpt lat="45.40480263065547" lon="4.717943547293544">
<ele>351.90</ele>
<time>2013-08-17T14:14:25Z</time>
</trkpt>
<trkpt lat="45.40467677637935" lon="4.7177183255553246">
<ele>351.11</ele>
<time>2013-08-17T14:14:30Z</time>
</trkpt>
<trkpt lat="45.40460641030222" lon="4.717447003349662">
<ele>350.35</ele>
<time>2013-08-17T14:14:36Z</time>
</trkpt>
<trkpt lat="45.40442502591759" lon="4.71751824952662">
<ele>348.58</ele>
<time>2013-08-17T14:14:46Z</time>
</trkpt>
<trkpt lat="45.40427373256534" lon="4.717667028307915">
<ele>347.80</ele>
<time>2013-08-17T14:14:51Z</time>
</trkpt>
<trkpt lat="45.40422972757369" lon="4.717362262308598">
<ele>342.31</ele>
<time>2013-08-17T14:15:03Z</time>
</trkpt>
<trkpt lat="45.40425110142678" lon="4.717104015871882">
<ele>339.94</ele>
<time>2013-08-17T14:15:07Z</time>
</trkpt>
<trkpt lat="45.40429267566651" lon="4.716796902939677">
<ele>337.92</ele>
<time>2013-08-17T14:15:11Z</time>
</trkpt>
<trkpt lat="45.404301644302905" lon="4.716511247679591">
<ele>336.45</ele>
<time>2013-08-17T14:15:15Z</time>
</trkpt>
<trkpt lat="45.40429351385683" lon="4.716236740350723">
<ele>334.81</ele>
<time>2013-08-17T14:15:20Z</time>
</trkpt>
<trkpt lat="45.40437909308821" lon="4.715955359861255">
<ele>332.62</ele>
<time>2013-08-17T14:15:28Z</time>
</trkpt>
<trkpt lat="45.40452066343278" lon="4.715628549456596">
<ele>331.45</ele>
<time>2013-08-17T14:16:07Z</time>
</trkpt>
<trkpt lat="45.40434254799038" lon="4.715703651309013">
<ele>328.48</ele>
<time>2013-08-17T14:16:17Z</time>
</trkpt>
<trkpt lat="45.404132162220776" lon="4.715662831440568">
<ele>327.48</ele>
<time>2013-08-17T14:16:26Z</time>
</trkpt>
<trkpt lat="45.40388355497271" lon="4.715893333777785">
<ele>325.25</ele>
<time>2013-08-17T14:18:06Z</time>
</trkpt>
<trkpt lat="45.403803759254515" lon="4.716172618791461">
<ele>322.36</ele>
<time>2013-08-17T14:18:24Z</time>
</trkpt>
<trkpt lat="45.40365317836404" lon="4.71633673645556">
<ele>323.40</ele>
<time>2013-08-17T14:18:34Z</time>
</trkpt>
<trkpt lat="45.40353985503316" lon="4.716599760577083">
<ele>324.77</ele>
<time>2013-08-17T14:19:13Z</time>
</trkpt>
<trkpt lat="45.403347574174404" lon="4.716815175488591">
<ele>328.35</ele>
<time>2013-08-17T14:20:01Z</time>
</trkpt>
<trkpt lat="45.40318341460079" lon="4.7169911954551935">
<ele>327.73</ele>
<time>2013-08-17T14:20:22Z</time>
</trkpt>
<trkpt lat="45.402816622518" lon="4.717304930090904">
<ele>329.67</ele>
<time>2013-08-17T14:20:56Z</time>
</trkpt>
<trkpt lat="45.402433401905" lon="4.7175169084221125">
<ele>333.50</ele>
<time>2013-08-17T14:21:22Z</time>
</trkpt>
<trkpt lat="45.40228495839983" lon="4.7176868095994">
<ele>334.68</ele>
<time>2013-08-17T14:21:35Z</time>
</trkpt>
<trkpt lat="45.40221203584224" lon="4.71793457865715">
<ele>339.66</ele>
<time>2013-08-17T14:21:44Z</time>
</trkpt>
<trkpt lat="45.402133371680975" lon="4.718199949711561">
<ele>343.48</ele>
<time>2013-08-17T14:21:53Z</time>
</trkpt>
<trkpt lat="45.401992639526725" lon="4.71841829828918">
<ele>344.82</ele>
<time>2013-08-17T14:22:00Z</time>
</trkpt>
<trkpt lat="45.40187763981521" lon="4.71865089610219">
<ele>345.30</ele>
<time>2013-08-17T14:22:06Z</time>
</trkpt>
<trkpt lat="45.40179683826864" lon="4.718899838626385">
<ele>344.93</ele>
<time>2013-08-17T14:22:11Z</time>
</trkpt>
<trkpt lat="45.401711678132415" lon="4.719134448096156">
<ele>345.05</ele>
<time>2013-08-17T14:22:16Z</time>
</trkpt>
<trkpt lat="45.40162949357182" lon="4.7193787805736065">
<ele>345.24</ele>
<time>2013-08-17T14:22:21Z</time>
</trkpt>
<trkpt lat="45.40153000038117" lon="4.719629315659404">
<ele>345.28</ele>
<time>2013-08-17T14:22:26Z</time>
</trkpt>
<trkpt lat="45.401403307914734" lon="4.71987733617425">
<ele>345.39</ele>
<time>2013-08-17T14:22:31Z</time>
</trkpt>
<trkpt lat="45.40127808228135" lon="4.720098366960883">
<ele>346.34</ele>
<time>2013-08-17T14:22:36Z</time>
</trkpt>
<trkpt lat="45.401137601584196" lon="4.720318894833326">
<ele>346.87</ele>
<time>2013-08-17T14:22:41Z</time>
</trkpt>
<trkpt lat="45.40099724661559" lon="4.720552330836654">
<ele>347.10</ele>
<time>2013-08-17T14:22:46Z</time>
</trkpt>
<trkpt lat="45.40087767876685" lon="4.720821138471365">
<ele>346.89</ele>
<time>2013-08-17T14:22:51Z</time>
</trkpt>
<trkpt lat="45.40077068377286" lon="4.721034541726112">
<ele>347.07</ele>
<time>2013-08-17T14:22:55Z</time>
</trkpt>
<trkpt lat="45.40063674096018" lon="4.7212910279631615">
<ele>347.62</ele>
<time>2013-08-17T14:23:00Z</time>
</trkpt>
<trkpt lat="45.400512563064694" lon="4.721489427611232">
<ele>347.91</ele>
<time>2013-08-17T14:23:05Z</time>
</trkpt>
<trkpt lat="45.400350792333484" lon="4.721634266898036">
<ele>348.95</ele>
<time>2013-08-17T14:23:12Z</time>
</trkpt>
<trkpt lat="45.40022728499025" lon="4.72184699960053">
<ele>349.75</ele>
<time>2013-08-17T14:23:19Z</time>
</trkpt>
<trkpt lat="45.400108261965215" lon="4.722063671797514">
<ele>349.76</ele>
<time>2013-08-17T14:23:25Z</time>
</trkpt>
<trkpt lat="45.399968745186925" lon="4.722266849130392">
<ele>350.66</ele>
<time>2013-08-17T14:23:31Z</time>
</trkpt>
<trkpt lat="45.39984142407775" lon="4.722454939037561">
<ele>351.13</ele>
<time>2013-08-17T14:23:36Z</time>
</trkpt>
<trkpt lat="45.39968132972717" lon="4.722671778872609">
<ele>351.38</ele>
<time>2013-08-17T14:23:41Z</time>
</trkpt>
<trkpt lat="45.39953204803169" lon="4.722837656736374">
<ele>351.64</ele>
<time>2013-08-17T14:23:45Z</time>
</trkpt>
<trkpt lat="45.399349657818675" lon="4.723018538206816">
<ele>351.76</ele>
<time>2013-08-17T14:23:50Z</time>
</trkpt>
<trkpt lat="45.39919543080032" lon="4.723198413848877">
<ele>351.96</ele>
<time>2013-08-17T14:23:54Z</time>
</trkpt>
<trkpt lat="45.39907552767545" lon="4.723422294482589">
<ele>352.12</ele>
<time>2013-08-17T14:23:58Z</time>
</trkpt>
<trkpt lat="45.398961952887475" lon="4.723654808476567">
<ele>351.53</ele>
<time>2013-08-17T14:24:02Z</time>
</trkpt>
<trkpt lat="45.398815856315196" lon="4.723872570320964">
<ele>350.95</ele>
<time>2013-08-17T14:24:06Z</time>
</trkpt>
<trkpt lat="45.39865161292255" lon="4.724082117900252">
<ele>350.80</ele>
<time>2013-08-17T14:24:10Z</time>
</trkpt>
<trkpt lat="45.39848083164543" lon="4.724285714328289">
<ele>350.81</ele>
<time>2013-08-17T14:24:14Z</time>
</trkpt>
<trkpt lat="45.398310301825404" lon="4.724487802013755">
<ele>350.45</ele>
<time>2013-08-17T14:24:18Z</time>
</trkpt>
<trkpt lat="45.3981377184391" lon="4.724693996831775">
<ele>350.51</ele>
<time>2013-08-17T14:24:22Z</time>
</trkpt>
<trkpt lat="45.39800603874028" lon="4.7248719446361065">
<ele>350.56</ele>
<time>2013-08-17T14:24:25Z</time>
</trkpt>
<trkpt lat="45.39786706678569" lon="4.725039163604379">
<ele>350.66</ele>
<time>2013-08-17T14:24:28Z</time>
</trkpt>
<trkpt lat="45.397708816453815" lon="4.725206047296524">
<ele>350.91</ele>
<time>2013-08-17T14:24:31Z</time>
</trkpt>
<trkpt lat="45.39755203295499" lon="4.725377792492509">
<ele>350.96</ele>
<time>2013-08-17T14:24:34Z</time>
</trkpt>
<trkpt lat="45.39739399217069" lon="4.725586585700512">
<ele>350.92</ele>
<time>2013-08-17T14:24:37Z</time>
</trkpt>
<trkpt lat="45.39721818175167" lon="4.725810717791319">
<ele>350.62</ele>
<time>2013-08-17T14:24:40Z</time>
</trkpt>
<trkpt lat="45.39704019203782" lon="4.725978942587972">
<ele>350.13</ele>
<time>2013-08-17T14:24:43Z</time>
</trkpt>
<trkpt lat="45.396855203434825" lon="4.726096456870437">
<ele>349.57</ele>
<time>2013-08-17T14:24:47Z</time>
</trkpt>
<trkpt lat="45.396764134056866" lon="4.725850028917193">
<ele>346.04</ele>
<time>2013-08-17T14:25:26Z</time>
</trkpt>
<trkpt lat="45.396625539287925" lon="4.725677277892828">
<ele>345.61</ele>
<time>2013-08-17T14:25:33Z</time>
</trkpt>
<trkpt lat="45.39650165475905" lon="4.7254803869873285">
<ele>344.19</ele>
<time>2013-08-17T14:25:40Z</time>
</trkpt>
<trkpt lat="45.3963617188856" lon="4.725303361192346">
<ele>344.29</ele>
<time>2013-08-17T14:25:48Z</time>
</trkpt>
<trkpt lat="45.39621017407626" lon="4.725148882716894">
<ele>344.80</ele>
<time>2013-08-17T14:25:59Z</time>
</trkpt>
<trkpt lat="45.396063113585114" lon="4.724959786981344">
<ele>342.86</ele>
<time>2013-08-17T14:26:10Z</time>
</trkpt>
<trkpt lat="45.395927117206156" lon="4.72476557828486">
<ele>342.98</ele>
<time>2013-08-17T14:26:17Z</time>
</trkpt>
<trkpt lat="45.39579070173204" lon="4.724585954099894">
<ele>343.47</ele>
<time>2013-08-17T14:26:25Z</time>
</trkpt>
<trkpt lat="45.395655166357756" lon="4.724397528916597">
<ele>343.82</ele>
<time>2013-08-17T14:26:33Z</time>
</trkpt>
<trkpt lat="45.3955157333985" lon="4.724201979115605">
<ele>344.98</ele>
<time>2013-08-17T14:26:42Z</time>
</trkpt>
<trkpt lat="45.39538552053273" lon="4.7239934373646975">
<ele>345.60</ele>
<time>2013-08-17T14:26:51Z</time>
</trkpt>
<trkpt lat="45.39524709340185" lon="4.723794367164373">
<ele>347.41</ele>
<time>2013-08-17T14:27:00Z</time>
</trkpt>
<trkpt lat="45.39512413088232" lon="4.723579622805119">
<ele>348.13</ele>
<time>2013-08-17T14:27:10Z</time>
</trkpt>
<trkpt lat="45.39498733822256" lon="4.723363956436515">
<ele>349.04</ele>
<time>2013-08-17T14:27:19Z</time>
</trkpt>
<trkpt lat="45.39485389832407" lon="4.723190870136023">
<ele>350.41</ele>
<time>2013-08-17T14:27:27Z</time>
</trkpt>
<trkpt lat="45.39469992276281" lon="4.72301971167326">
<ele>351.12</ele>
<time>2013-08-17T14:27:36Z</time>
</trkpt>
<trkpt lat="45.39457289502025" lon="4.722821982577443">
<ele>352.24</ele>
<time>2013-08-17T14:27:44Z</time>
</trkpt>
<trkpt lat="45.39443777874112" lon="4.722624504938722">
<ele>353.67</ele>
<time>2013-08-17T14:27:54Z</time>
</trkpt>
<trkpt lat="45.394147890619934" lon="4.722175402566791">
<ele>355.79</ele>
<time>2013-08-17T14:28:18Z</time>
</trkpt>
<trkpt lat="45.393990562297404" lon="4.722012709826231">
<ele>357.93</ele>
<time>2013-08-17T14:28:26Z</time>
</trkpt>
<trkpt lat="45.39383185096085" lon="4.721843060106039">
<ele>358.66</ele>
<time>2013-08-17T14:28:36Z</time>
</trkpt>
<trkpt lat="45.39371001999825" lon="4.721636613830924">
<ele>358.68</ele>
<time>2013-08-17T14:28:44Z</time>
</trkpt>
<trkpt lat="45.393594349734485" lon="4.721413655206561">
<ele>359.48</ele>
<time>2013-08-17T14:28:53Z</time>
</trkpt>
<trkpt lat="45.393470004200935" lon="4.721203437075019">
<ele>362.16</ele>
<time>2013-08-17T14:29:04Z</time>
</trkpt>
<trkpt lat="45.39335458539426" lon="4.721005707979202">
<ele>364.52</ele>
<time>2013-08-17T14:29:14Z</time>
</trkpt>
<trkpt lat="45.393235269002616" lon="4.720782497897744">
<ele>367.14</ele>
<time>2013-08-17T14:29:26Z</time>
</trkpt>
<trkpt lat="45.39310337975621" lon="4.720594072714448">
<ele>369.19</ele>
<time>2013-08-17T14:29:35Z</time>
</trkpt>
<trkpt lat="45.39297580718994" lon="4.720384189859033">
<ele>371.50</ele>
<time>2013-08-17T14:29:52Z</time>
</trkpt>
<trkpt lat="45.39282790850848" lon="4.7201707027852535">
<ele>371.80</ele>
<time>2013-08-17T14:30:08Z</time>
</trkpt>
<trkpt lat="45.39273914415389" lon="4.7199309803545475">
<ele>374.20</ele>
<time>2013-08-17T14:30:18Z</time>
</trkpt>
<trkpt lat="45.39264438673854" lon="4.719703663140535">
<ele>376.10</ele>
<time>2013-08-17T14:30:32Z</time>
</trkpt>
<trkpt lat="45.392583827488124" lon="4.7194568160921335">
<ele>378.70</ele>
<time>2013-08-17T14:31:14Z</time>
</trkpt>
<trkpt lat="45.39247255772352" lon="4.7192456759512424">
<ele>380.47</ele>
<time>2013-08-17T14:31:22Z</time>
</trkpt>
<trkpt lat="45.39231820497662" lon="4.719066806137562">
<ele>381.26</ele>
<time>2013-08-17T14:31:34Z</time>
</trkpt>
<trkpt lat="45.39221359882504" lon="4.718813169747591">
<ele>381.50</ele>
<time>2013-08-17T14:31:43Z</time>
</trkpt>
<trkpt lat="45.39213979616761" lon="4.718559114262462">
<ele>381.66</ele>
<time>2013-08-17T14:31:50Z</time>
</trkpt>
<trkpt lat="45.39207860827446" lon="4.718305813148618">
<ele>381.54</ele>
<time>2013-08-17T14:31:58Z</time>
</trkpt>
<trkpt lat="45.391997513361275" lon="4.718054439872503">
<ele>383.03</ele>
<time>2013-08-17T14:32:06Z</time>
</trkpt>
<trkpt lat="45.391907072626054" lon="4.717807425186038">
<ele>384.57</ele>
<time>2013-08-17T14:32:14Z</time>
</trkpt>
<trkpt lat="45.39181566797197" lon="4.717559572309256">
<ele>385.58</ele>
<time>2013-08-17T14:32:21Z</time>
</trkpt>
<trkpt lat="45.39173448923975" lon="4.717327980324626">
<ele>387.42</ele>
<time>2013-08-17T14:32:28Z</time>
</trkpt>
<trkpt lat="45.391690358519554" lon="4.7170662973076105">
<ele>388.82</ele>
<time>2013-08-17T14:32:36Z</time>
</trkpt>
<trkpt lat="45.391651005484164" lon="4.716802267357707">
<ele>389.47</ele>
<time>2013-08-17T14:32:44Z</time>
</trkpt>
<trkpt lat="45.39161529857665" lon="4.716534465551376">
<ele>389.11</ele>
<time>2013-08-17T14:32:52Z</time>
</trkpt>
<trkpt lat="45.391423855908215" lon="4.716580482199788">
<ele>390.45</ele>
<time>2013-08-17T14:33:08Z</time>
</trkpt>
<trkpt lat="45.39133605547249" lon="4.716832358390093">
<ele>392.05</ele>
<time>2013-08-17T14:33:15Z</time>
</trkpt>
<trkpt lat="45.39130248595029" lon="4.717109715566039">
<ele>393.19</ele>
<time>2013-08-17T14:33:51Z</time>
</trkpt>
<trkpt lat="45.391274029389024" lon="4.71737558953464">
<ele>392.46</ele>
<time>2013-08-17T14:33:58Z</time>
</trkpt>
<trkpt lat="45.39122235495597" lon="4.717647330835462">
<ele>392.07</ele>
<time>2013-08-17T14:34:03Z</time>
</trkpt>
<trkpt lat="45.391112845391035" lon="4.71792234107852">
<ele>391.99</ele>
<time>2013-08-17T14:34:07Z</time>
</trkpt>
<trkpt lat="45.39100626949221" lon="4.7181430365890265">
<ele>391.68</ele>
<time>2013-08-17T14:34:10Z</time>
</trkpt>
<trkpt lat="45.39090991951525" lon="4.7183701023459435">
<ele>391.15</ele>
<time>2013-08-17T14:34:13Z</time>
</trkpt>
<trkpt lat="45.39081444963813" lon="4.718646118417382">
<ele>390.38</ele>
<time>2013-08-17T14:34:17Z</time>
</trkpt>
<trkpt lat="45.3907504118979" lon="4.718918362632394">
<ele>390.08</ele>
<time>2013-08-17T14:34:21Z</time>
</trkpt>
<trkpt lat="45.390683356672525" lon="4.719211980700493">
<ele>389.67</ele>
<time>2013-08-17T14:34:25Z</time>
</trkpt>
<trkpt lat="45.39066642522812" lon="4.71948011778295">
<ele>389.43</ele>
<time>2013-08-17T14:34:28Z</time>
</trkpt>
<trkpt lat="45.39065875578672" lon="4.719746746122837">
<ele>388.56</ele>
<time>2013-08-17T14:34:31Z</time>
</trkpt>
<trkpt lat="45.39064190816134" lon="4.720046315342188">
<ele>387.15</ele>
<time>2013-08-17T14:34:35Z</time>
</trkpt>
<trkpt lat="45.39060045965016" lon="4.720367509871721">
<ele>385.24</ele>
<time>2013-08-17T14:34:39Z</time>
</trkpt>
<trkpt lat="45.39056768640876" lon="4.720625588670373">
<ele>384.00</ele>
<time>2013-08-17T14:34:42Z</time>
</trkpt>
<trkpt lat="45.39052778854966" lon="4.720896407961845">
<ele>383.12</ele>
<time>2013-08-17T14:34:45Z</time>
</trkpt>
<trkpt lat="45.3904861304909" lon="4.721166389063001">
<ele>382.22</ele>
<time>2013-08-17T14:34:48Z</time>
</trkpt>
<trkpt lat="45.39045603945851" lon="4.721429916098714">
<ele>380.86</ele>
<time>2013-08-17T14:34:51Z</time>
</trkpt>
<trkpt lat="45.39040591567755" lon="4.721676260232925">
<ele>379.92</ele>
<time>2013-08-17T14:34:54Z</time>
</trkpt>
<trkpt lat="45.39034611079842" lon="4.721938110888004">
<ele>379.33</ele>
<time>2013-08-17T14:34:57Z</time>
</trkpt>
<trkpt lat="45.390300513245165" lon="4.72218805924058">
<ele>378.52</ele>
<time>2013-08-17T14:35:00Z</time>
</trkpt>
<trkpt lat="45.390250347554684" lon="4.722466673702002">
<ele>377.76</ele>
<time>2013-08-17T14:35:04Z</time>
</trkpt>
<trkpt lat="45.39018048439175" lon="4.722712934017181">
<ele>376.68</ele>
<time>2013-08-17T14:35:52Z</time>
</trkpt>
<trkpt lat="45.39011569228023" lon="4.722990710288286">
<ele>375.33</ele>
<time>2013-08-17T14:36:01Z</time>
</trkpt>
<trkpt lat="45.390042811632156" lon="4.723243759945035">
<ele>375.18</ele>
<time>2013-08-17T14:36:08Z</time>
</trkpt>
<trkpt lat="45.389962387271225" lon="4.723489014431834">
<ele>374.73</ele>
<time>2013-08-17T14:36:15Z</time>
</trkpt>
<trkpt lat="45.3898737905547" lon="4.723741058260202">
<ele>374.76</ele>
<time>2013-08-17T14:36:21Z</time>
</trkpt>
<trkpt lat="45.38977232761681" lon="4.723989916965365">
<ele>375.20</ele>
<time>2013-08-17T14:36:27Z</time>
</trkpt>
<trkpt lat="45.38966956548393" lon="4.724238188937306">
<ele>374.78</ele>
<time>2013-08-17T14:36:32Z</time>
</trkpt>
<trkpt lat="45.3895312640816" lon="4.724467685446143">
<ele>374.40</ele>
<time>2013-08-17T14:36:37Z</time>
</trkpt>
<trkpt lat="45.389389651827514" lon="4.724685782566667">
<ele>373.92</ele>
<time>2013-08-17T14:36:40Z</time>
</trkpt>
<trkpt lat="45.38923613727093" lon="4.724936988204718">
<ele>373.45</ele>
<time>2013-08-17T14:36:43Z</time>
</trkpt>
<trkpt lat="45.389107475057244" lon="4.725149050354958">
<ele>372.93</ele>
<time>2013-08-17T14:36:47Z</time>
</trkpt>
<trkpt lat="45.388965317979455" lon="4.725336050614715">
<ele>371.29</ele>
<time>2013-08-17T14:36:55Z</time>
</trkpt>
<trkpt lat="45.38883225526661" lon="4.725562445819378">
<ele>370.43</ele>
<time>2013-08-17T14:37:02Z</time>
</trkpt>
<trkpt lat="45.38874533493072" lon="4.725804850459099">
<ele>369.67</ele>
<time>2013-08-17T14:37:07Z</time>
</trkpt>
<trkpt lat="45.38864827249199" lon="4.726023785769939">
<ele>368.23</ele>
<time>2013-08-17T14:37:11Z</time>
</trkpt>
<trkpt lat="45.38852727971971" lon="4.7262210957705975">
<ele>367.11</ele>
<time>2013-08-17T14:37:17Z</time>
</trkpt>
<trkpt lat="45.3884587995708" lon="4.7264596447348595">
<ele>365.86</ele>
<time>2013-08-17T14:37:26Z</time>
</trkpt>
<trkpt lat="45.38827251177281" lon="4.726541116833687">
<ele>363.40</ele>
<time>2013-08-17T14:37:38Z</time>
</trkpt>
<trkpt lat="45.388097246177495" lon="4.726600544527173">
<ele>362.74</ele>
<time>2013-08-17T14:37:43Z</time>
</trkpt>
<trkpt lat="45.38796950597316" lon="4.726784527301788">
<ele>361.19</ele>
<time>2013-08-17T14:37:48Z</time>
</trkpt>
<trkpt lat="45.38783493451774" lon="4.726976053789258">
<ele>359.93</ele>
<time>2013-08-17T14:37:53Z</time>
</trkpt>
<trkpt lat="45.387695878744125" lon="4.7271879483014345">
<ele>359.07</ele>
<time>2013-08-17T14:37:57Z</time>
</trkpt>
<trkpt lat="45.38756591733545" lon="4.727466143667698">
<ele>358.48</ele>
<time>2013-08-17T14:38:01Z</time>
</trkpt>
<trkpt lat="45.38743905723095" lon="4.727747356519103">
<ele>358.09</ele>
<time>2013-08-17T14:38:05Z</time>
</trkpt>
<trkpt lat="45.387309095822275" lon="4.728030664846301">
<ele>357.73</ele>
<time>2013-08-17T14:38:09Z</time>
</trkpt>
<trkpt lat="45.38717800285667" lon="4.728305675089359">
<ele>357.57</ele>
<time>2013-08-17T14:38:13Z</time>
</trkpt>
<trkpt lat="45.387063841335475" lon="4.728539865463972">
<ele>357.41</ele>
<time>2013-08-17T14:38:17Z</time>
</trkpt>
<trkpt lat="45.386939202435315" lon="4.728780509904027">
<ele>356.87</ele>
<time>2013-08-17T14:38:21Z</time>
</trkpt>
<trkpt lat="45.38682298734784" lon="4.728976730257273">
<ele>356.17</ele>
<time>2013-08-17T14:38:25Z</time>
</trkpt>
<trkpt lat="45.38671372924" lon="4.729185104370117">
<ele>355.62</ele>
<time>2013-08-17T14:38:29Z</time>
</trkpt>
<trkpt lat="45.38662291131914" lon="4.729408482089639">
<ele>355.12</ele>
<time>2013-08-17T14:38:34Z</time>
</trkpt>
<trkpt lat="45.38648813031614" lon="4.729686342179775">
<ele>354.71</ele>
<time>2013-08-17T14:38:38Z</time>
</trkpt>
<trkpt lat="45.3863950073719" lon="4.729924304410815">
<ele>354.14</ele>
<time>2013-08-17T14:38:44Z</time>
</trkpt>
<trkpt lat="45.386227746494114" lon="4.730060761794448">
<ele>353.64</ele>
<time>2013-08-17T14:39:21Z</time>
</trkpt>
<trkpt lat="45.3860368905589" lon="4.73004718311131">
<ele>353.43</ele>
<time>2013-08-17T14:39:30Z</time>
</trkpt>
<trkpt lat="45.38585445843637" lon="4.7299734223634005">
<ele>353.25</ele>
<time>2013-08-17T14:39:40Z</time>
</trkpt>
<trkpt lat="45.385664398781955" lon="4.7299460135400295">
<ele>353.90</ele>
<time>2013-08-17T14:39:52Z</time>
</trkpt>
<trkpt lat="45.385488043539226" lon="4.730027234181762">
<ele>353.19</ele>
<time>2013-08-17T14:40:00Z</time>
</trkpt>
<trkpt lat="45.385308670811355" lon="4.730133935809135">
<ele>351.73</ele>
<time>2013-08-17T14:40:07Z</time>
</trkpt>
<trkpt lat="45.385148702189326" lon="4.730341304093599">
<ele>351.21</ele>
<time>2013-08-17T14:40:13Z</time>
</trkpt>
<trkpt lat="45.38496606051922" lon="4.730437360703945">
<ele>349.71</ele>
<time>2013-08-17T14:40:20Z</time>
</trkpt>
<trkpt lat="45.384800476022065" lon="4.730640202760696">
<ele>348.78</ele>
<time>2013-08-17T14:40:25Z</time>
</trkpt>
<trkpt lat="45.38467256817967" lon="4.730836758390069">
<ele>348.40</ele>
<time>2013-08-17T14:40:29Z</time>
</trkpt>
<trkpt lat="45.38450425956398" lon="4.730974640697241">
<ele>347.75</ele>
<time>2013-08-17T14:40:37Z</time>
</trkpt>
<trkpt lat="45.38436696399003" lon="4.731171615421772">
<ele>346.87</ele>
<time>2013-08-17T14:40:42Z</time>
</trkpt>
<trkpt lat="45.384248066693544" lon="4.731387030333281">
<ele>345.33</ele>
<time>2013-08-17T14:40:51Z</time>
</trkpt>
<trkpt lat="45.384070705622435" lon="4.731337912380695">
<ele>337.90</ele>
<time>2013-08-17T14:41:22Z</time>
</trkpt>
<trkpt lat="45.383920166641474" lon="4.731147224083543">
<ele>332.69</ele>
<time>2013-08-17T14:41:37Z</time>
</trkpt>
<trkpt lat="45.383981857448816" lon="4.730882523581386">
<ele>329.55</ele>
<time>2013-08-17T14:41:46Z</time>
</trkpt>
<trkpt lat="45.38416609168053" lon="4.730850337073207">
<ele>328.50</ele>
<time>2013-08-17T14:41:54Z</time>
</trkpt>
<trkpt lat="45.38428243249655" lon="4.73063743673265">
<ele>326.27</ele>
<time>2013-08-17T14:42:04Z</time>
</trkpt>
<trkpt lat="45.38429751992226" lon="4.7303633484989405">
<ele>324.69</ele>
<time>2013-08-17T14:42:13Z</time>
</trkpt>
<trkpt lat="45.384334861300886" lon="4.730075765401125">
<ele>323.38</ele>
<time>2013-08-17T14:42:21Z</time>
</trkpt>
<trkpt lat="45.38443712051958" lon="4.729845095425844">
<ele>322.60</ele>
<time>2013-08-17T14:42:28Z</time>
</trkpt>
<trkpt lat="45.384544995613396" lon="4.729591375216842">
<ele>321.72</ele>
<time>2013-08-17T14:42:35Z</time>
</trkpt>
<trkpt lat="45.38466305471957" lon="4.729335140436888">
<ele>316.68</ele>
<time>2013-08-17T14:43:38Z</time>
</trkpt>
<trkpt lat="45.384632628411055" lon="4.729602187871933">
<ele>312.56</ele>
<time>2013-08-17T14:44:38Z</time>
</trkpt>
<trkpt lat="45.38456653710455" lon="4.729862613603473">
<ele>313.54</ele>
<time>2013-08-17T14:44:48Z</time>
</trkpt>
<trkpt lat="45.38445539306849" lon="4.730088338255882">
<ele>314.48</ele>
<time>2013-08-17T14:44:59Z</time>
</trkpt>
<trkpt lat="45.384393157437444" lon="4.730330742895603">
<ele>314.97</ele>
<time>2013-08-17T14:45:08Z</time>
</trkpt>
<trkpt lat="45.38437350187451" lon="4.73064573481679">
<ele>315.62</ele>
<time>2013-08-17T14:45:22Z</time>
</trkpt>
<trkpt lat="45.384288844652474" lon="4.7308743093162775">
<ele>315.68</ele>
<time>2013-08-17T14:45:32Z</time>
</trkpt>
<trkpt lat="45.38410243112594" lon="4.730910016223788">
<ele>315.91</ele>
<time>2013-08-17T14:45:37Z</time>
</trkpt>
<trkpt lat="45.38403554353863" lon="4.731151079759002">
<ele>314.72</ele>
<time>2013-08-17T14:45:47Z</time>
</trkpt>
<trkpt lat="45.38434860762209" lon="4.731393987312913">
<ele>319.42</ele>
<time>2013-08-17T14:46:50Z</time>
</trkpt>
<trkpt lat="45.384440179914236" lon="4.731155941262841">
<ele>331.51</ele>
<time>2013-08-17T14:47:14Z</time>
</trkpt>
<trkpt lat="45.38463510107249" lon="4.730960810557008">
<ele>333.15</ele>
<time>2013-08-17T14:47:33Z</time>
</trkpt>
<trkpt lat="45.3848402062431" lon="4.730950416997075">
<ele>337.04</ele>
<time>2013-08-17T14:47:50Z</time>
</trkpt>
<trkpt lat="45.38503667805344" lon="4.730991907417774">
<ele>339.03</ele>
<time>2013-08-17T14:48:01Z</time>
</trkpt>
<trkpt lat="45.38522170856595" lon="4.731013868004084">
<ele>341.11</ele>
<time>2013-08-17T14:48:13Z</time>
</trkpt>
<trkpt lat="45.38542589172721" lon="4.731040857732296">
<ele>343.25</ele>
<time>2013-08-17T14:48:45Z</time>
</trkpt>
<trkpt lat="45.38560597691685" lon="4.731044126674533">
<ele>343.12</ele>
<time>2013-08-17T14:48:50Z</time>
</trkpt>
<trkpt lat="45.385804418474436" lon="4.731087880209088">
<ele>342.51</ele>
<time>2013-08-17T14:48:55Z</time>
</trkpt>
<trkpt lat="45.385748888365924" lon="4.7314338851720095">
<ele>340.38</ele>
<time>2013-08-17T14:50:17Z</time>
</trkpt>
<trkpt lat="45.38577612955123" lon="4.731709146872163">
<ele>333.81</ele>
<time>2013-08-17T14:51:34Z</time>
</trkpt>
<trkpt lat="45.38571959361434" lon="4.731959095224738">
<ele>331.69</ele>
<time>2013-08-17T14:51:38Z</time>
</trkpt>
<trkpt lat="45.38569918368012" lon="4.732237374410033">
<ele>327.76</ele>
<time>2013-08-17T14:51:44Z</time>
</trkpt>
<trkpt lat="45.38551855366677" lon="4.732193369418383">
<ele>324.67</ele>
<time>2013-08-17T14:51:56Z</time>
</trkpt>
<trkpt lat="45.38533037994057" lon="4.732105191797018">
<ele>322.63</ele>
<time>2013-08-17T14:52:06Z</time>
</trkpt>
<trkpt lat="45.38515268359333" lon="4.732147352769971">
<ele>321.24</ele>
<time>2013-08-17T14:52:16Z</time>
</trkpt>
<trkpt lat="45.38496086373925" lon="4.732207115739584">
<ele>320.14</ele>
<time>2013-08-17T14:52:25Z</time>
</trkpt>
<trkpt lat="45.38478890899569" lon="4.732313230633736">
<ele>315.78</ele>
<time>2013-08-17T14:52:33Z</time>
</trkpt>
<trkpt lat="45.384605303406715" lon="4.732449855655432">
<ele>309.67</ele>
<time>2013-08-17T14:52:51Z</time>
</trkpt>
<trkpt lat="45.38440887350589" lon="4.732343824580312">
<ele>308.67</ele>
<time>2013-08-17T14:52:57Z</time>
</trkpt>
<trkpt lat="45.384244420565665" lon="4.7321972250938416">
<ele>308.65</ele>
<time>2013-08-17T14:53:02Z</time>
</trkpt>
<trkpt lat="45.384116847999394" lon="4.732016930356622">
<ele>308.28</ele>
<time>2013-08-17T14:53:06Z</time>
</trkpt>
<trkpt lat="45.383980558253825" lon="4.7318117413669825">
<ele>307.17</ele>
<time>2013-08-17T14:53:13Z</time>
</trkpt>
<trkpt lat="45.38382955826819" lon="4.731639577075839">
<ele>306.78</ele>
<time>2013-08-17T14:53:21Z</time>
</trkpt>
<trkpt lat="45.383679270744324" lon="4.7314827516674995">
<ele>306.64</ele>
<time>2013-08-17T14:53:25Z</time>
</trkpt>
<trkpt lat="45.38356204982847" lon="4.731262642890215">
<ele>306.35</ele>
<time>2013-08-17T14:53:30Z</time>
</trkpt>
<trkpt lat="45.38357814308256" lon="4.73099559545517">
<ele>301.44</ele>
<time>2013-08-17T14:53:37Z</time>
</trkpt>
<trkpt lat="45.38361041340977" lon="4.7307046595960855">
<ele>296.31</ele>
<time>2013-08-17T14:53:46Z</time>
</trkpt>
<trkpt lat="45.38364846725017" lon="4.730443060398102">
<ele>294.54</ele>
<time>2013-08-17T14:53:52Z</time>
</trkpt>
<trkpt lat="45.38377029821277" lon="4.730251617729664">
<ele>293.69</ele>
<time>2013-08-17T14:53:58Z</time>
</trkpt>
<trkpt lat="45.38379594683647" lon="4.729959173128009">
<ele>292.56</ele>
<time>2013-08-17T14:54:04Z</time>
</trkpt>
<trkpt lat="45.38380353245884" lon="4.729675026610494">
<ele>291.43</ele>
<time>2013-08-17T14:54:08Z</time>
</trkpt>
<trkpt lat="45.3838953981176" lon="4.729455253109336">
<ele>290.52</ele>
<time>2013-08-17T14:54:14Z</time>
</trkpt>
<trkpt lat="45.3838375210762" lon="4.729151241481304">
<ele>289.66</ele>
<time>2013-08-17T14:54:22Z</time>
</trkpt>
<trkpt lat="45.38372331764549" lon="4.728919146582484">
<ele>289.70</ele>
<time>2013-08-17T14:54:25Z</time>
</trkpt>
<trkpt lat="45.383605090901256" lon="4.728692751377821">
<ele>289.93</ele>
<time>2013-08-17T14:54:29Z</time>
</trkpt>
<trkpt lat="45.38342990912497" lon="4.7287877183407545">
<ele>288.22</ele>
<time>2013-08-17T14:54:36Z</time>
</trkpt>
<trkpt lat="45.383493402041495" lon="4.729052921757102">
<ele>286.32</ele>
<time>2013-08-17T14:54:44Z</time>
</trkpt>
<trkpt lat="45.38345295935869" lon="4.72930739633739">
<ele>284.16</ele>
<time>2013-08-17T14:54:52Z</time>
</trkpt>
<trkpt lat="45.38331612478942" lon="4.729512920603156">
<ele>282.08</ele>
<time>2013-08-17T14:55:03Z</time>
</trkpt>
<trkpt lat="45.3832082496956" lon="4.729727748781443">
<ele>281.93</ele>
<time>2013-08-17T14:55:11Z</time>
</trkpt>
<trkpt lat="45.383197353221476" lon="4.7299866657704115">
<ele>280.56</ele>
<time>2013-08-17T14:55:20Z</time>
</trkpt>
<trkpt lat="45.38302644621581" lon="4.730120440945029">
<ele>278.33</ele>
<time>2013-08-17T14:55:30Z</time>
</trkpt>
<trkpt lat="45.38317002821714" lon="4.729948611930013">
<ele>279.47</ele>
<time>2013-08-17T14:55:44Z</time>
</trkpt>
<trkpt lat="45.383243495598435" lon="4.729698747396469">
<ele>279.67</ele>
<time>2013-08-17T14:55:52Z</time>
</trkpt>
<trkpt lat="45.38325879257172" lon="4.7294288501143456">
<ele>279.20</ele>
<time>2013-08-17T14:56:01Z</time>
</trkpt>
<trkpt lat="45.383402039296925" lon="4.729245956987143">
<ele>280.92</ele>
<time>2013-08-17T14:56:10Z</time>
</trkpt>
<trkpt lat="45.38347466848791" lon="4.72899760119617">
<ele>282.38</ele>
<time>2013-08-17T14:56:19Z</time>
</trkpt>
<trkpt lat="45.38339663296938" lon="4.728764416649938">
<ele>283.45</ele>
<time>2013-08-17T14:56:29Z</time>
</trkpt>
<trkpt lat="45.38326742593199" lon="4.72858571447432">
<ele>284.66</ele>
<time>2013-08-17T14:56:38Z</time>
</trkpt>
<trkpt lat="45.38315691053867" lon="4.728366695344448">
<ele>285.82</ele>
<time>2013-08-17T14:56:45Z</time>
</trkpt>
<trkpt lat="45.383101548068225" lon="4.72806922160089">
<ele>287.41</ele>
<time>2013-08-17T14:56:56Z</time>
</trkpt>
<trkpt lat="45.38318004459143" lon="4.7278165910393">
<ele>287.50</ele>
<time>2013-08-17T14:57:04Z</time>
</trkpt>
<trkpt lat="45.383127741515636" lon="4.727572174742818">
<ele>288.29</ele>
<time>2013-08-17T14:57:10Z</time>
</trkpt>
<trkpt lat="45.38322354666889" lon="4.727343851700425">
<ele>289.41</ele>
<time>2013-08-17T14:57:17Z</time>
</trkpt>
<trkpt lat="45.38341918028891" lon="4.727248549461365">
<ele>291.67</ele>
<time>2013-08-17T14:57:24Z</time>
</trkpt>
<trkpt lat="45.383439674042165" lon="4.726941185072064">
<ele>292.66</ele>
<time>2013-08-17T14:57:30Z</time>
</trkpt>
<trkpt lat="45.38357143756002" lon="4.726752424612641">
<ele>292.85</ele>
<time>2013-08-17T14:57:34Z</time>
</trkpt>
<trkpt lat="45.38371703121811" lon="4.726597443223">
<ele>293.29</ele>
<time>2013-08-17T14:57:38Z</time>
</trkpt>
<trkpt lat="45.383902355097234" lon="4.726477582007647">
<ele>293.50</ele>
<time>2013-08-17T14:57:42Z</time>
</trkpt>
<trkpt lat="45.38408210501075" lon="4.726336011663079">
<ele>293.67</ele>
<time>2013-08-17T14:57:46Z</time>
</trkpt>
<trkpt lat="45.38426449522376" lon="4.726174827665091">
<ele>293.44</ele>
<time>2013-08-17T14:57:50Z</time>
</trkpt>
<trkpt lat="45.38445681799203" lon="4.726083967834711">
<ele>293.17</ele>
<time>2013-08-17T14:57:55Z</time>
</trkpt>
<trkpt lat="45.38462902419269" lon="4.725923119112849">
<ele>293.04</ele>
<time>2013-08-17T14:58:02Z</time>
</trkpt>
<trkpt lat="45.38480931892991" lon="4.725763192400336">
<ele>293.64</ele>
<time>2013-08-17T14:58:08Z</time>
</trkpt>
<trkpt lat="45.384998582303524" lon="4.725604271516204">
<ele>293.84</ele>
<time>2013-08-17T14:58:13Z</time>
</trkpt>
<trkpt lat="45.38517736829817" lon="4.725404866039753">
<ele>293.02</ele>
<time>2013-08-17T14:58:18Z</time>
</trkpt>
<trkpt lat="45.38532824255526" lon="4.7251661494374275">
<ele>291.93</ele>
<time>2013-08-17T14:58:23Z</time>
</trkpt>
<trkpt lat="45.3853745944798" lon="4.7249161172658205">
<ele>291.71</ele>
<time>2013-08-17T14:58:28Z</time>
</trkpt>
<trkpt lat="45.38541960529983" lon="4.724661977961659">
<ele>289.26</ele>
<time>2013-08-17T14:59:30Z</time>
</trkpt>
</trkseg>
</trk>
</gpx>
